<?xml version="1.0" encoding="UTF-8" standalone="no" ?>
<gpx xmlns="http://www.topografix.com/GPX/1/1" xmlns:xsi="http://www.w3.org/2001/XMLSchema-instance" xsi:schemaLocation="http://www.topografix.com/GPX/1/1 http://www.topografix.com/GPX/1/1/gpx.xsd" version="1.1" creator="VisuGPX - https://www.visugpx.com">
  <metadata>
    <name>Boucle en Dordogne (14juil22)</name>
  </metadata>
  <trk>
    <name><![CDATA[P2_Loubes Bernac-Bergerac-Margueron (54)]]></name>
    <extensions>
      <line xmlns="http://www.topografix.com/GPX/gpx_style/0/2">
        <color>11ff00</color>
        <width>4</width>
      </line>
    </extensions>
    <trkseg>
      <trkpt lat="44.73095" lon="0.29312">
        <ele>171.215206</ele>
        <time>2022-07-11T15:49:47.053Z</time>
      </trkpt>
      <trkpt lat="44.73097" lon="0.2932">
        <ele>171.283427</ele>
        <time>2022-07-11T15:49:48.287Z</time>
      </trkpt>
      <trkpt lat="44.73086" lon="0.2935">
        <ele>171.544863</ele>
        <time>2022-07-11T15:49:53.066Z</time>
      </trkpt>
      <trkpt lat="44.73082" lon="0.29364">
        <ele>171.661442</ele>
        <time>2022-07-11T15:49:55.174Z</time>
      </trkpt>
      <trkpt lat="44.73057" lon="0.29452">
        <ele>172.115743</ele>
        <time>2022-07-11T15:50:10.032Z</time>
      </trkpt>
      <trkpt lat="44.73048" lon="0.29512">
        <ele>172.264231</ele>
        <time>2022-07-11T15:50:20.030Z</time>
      </trkpt>
      <trkpt lat="44.73046" lon="0.29529">
        <ele>172.308073</ele>
        <time>2022-07-11T15:50:22.904Z</time>
      </trkpt>
      <trkpt lat="44.73031" lon="0.29577">
        <ele>172.43577</ele>
        <time>2022-07-11T15:50:29.736Z</time>
      </trkpt>
      <trkpt lat="44.73015" lon="0.29603">
        <ele>172.519809</ele>
        <time>2022-07-11T15:50:33.715Z</time>
      </trkpt>
      <trkpt lat="44.72967" lon="0.29621">
        <ele>172.088438</ele>
        <time>2022-07-11T15:50:41.794Z</time>
      </trkpt>
      <trkpt lat="44.72945" lon="0.29645">
        <ele>171.520078</ele>
        <time>2022-07-11T15:50:46.165Z</time>
      </trkpt>
      <trkpt lat="44.72916" lon="0.29681">
        <ele>170.739963</ele>
        <time>2022-07-11T15:50:52.024Z</time>
      </trkpt>
      <trkpt lat="44.72902" lon="0.29713">
        <ele>170.196238</ele>
        <time>2022-07-11T15:50:55.869Z</time>
      </trkpt>
      <trkpt lat="44.72887" lon="0.29757">
        <ele>169.49677</ele>
        <time>2022-07-11T15:51:00.662Z</time>
      </trkpt>
      <trkpt lat="44.72881" lon="0.29776">
        <ele>169.189458</ele>
        <time>2022-07-11T15:51:02.731Z</time>
      </trkpt>
      <trkpt lat="44.72872" lon="0.29864">
        <ele>167.520419</ele>
        <time>2022-07-11T15:51:11.101Z</time>
      </trkpt>
      <trkpt lat="44.72855" lon="0.3">
        <ele>164.781801</ele>
        <time>2022-07-11T15:51:24.836Z</time>
      </trkpt>
      <trkpt lat="44.72853" lon="0.3005">
        <ele>163.908551</ele>
        <time>2022-07-11T15:51:30.029Z</time>
      </trkpt>
      <trkpt lat="44.7286" lon="0.30128">
        <ele>163.674464</ele>
        <time>2022-07-11T15:51:38.334Z</time>
      </trkpt>
      <trkpt lat="44.7287" lon="0.302">
        <ele>163.454357</ele>
        <time>2022-07-11T15:51:46.713Z</time>
      </trkpt>
      <trkpt lat="44.72872" lon="0.30214">
        <ele>163.411925</ele>
        <time>2022-07-11T15:51:48.453Z</time>
      </trkpt>
      <trkpt lat="44.72882" lon="0.30288">
        <ele>163.190109</ele>
        <time>2022-07-11T15:52:00.520Z</time>
      </trkpt>
      <trkpt lat="44.72875" lon="0.30399">
        <ele>164.052639</ele>
        <time>2022-07-11T15:52:22.482Z</time>
      </trkpt>
      <trkpt lat="44.72879" lon="0.30446">
        <ele>164.435312</ele>
        <time>2022-07-11T15:52:30.919Z</time>
      </trkpt>
      <trkpt lat="44.72881" lon="0.3046">
        <ele>164.551818</ele>
        <time>2022-07-11T15:52:32.593Z</time>
      </trkpt>
      <trkpt lat="44.72894" lon="0.30476">
        <ele>164.752177</ele>
        <time>2022-07-11T15:52:37.814Z</time>
      </trkpt>
      <trkpt lat="44.72935" lon="0.30567">
        <ele>163.953852</ele>
        <time>2022-07-11T15:52:51.911Z</time>
      </trkpt>
      <trkpt lat="44.73018" lon="0.30792">
        <ele>155.460517</ele>
        <time>2022-07-11T15:53:16.010Z</time>
      </trkpt>
      <trkpt lat="44.73021" lon="0.30798">
        <ele>155.004695</ele>
        <time>2022-07-11T15:53:16.662Z</time>
      </trkpt>
      <trkpt lat="44.73076" lon="0.30878">
        <ele>148.484257</ele>
        <time>2022-07-11T15:53:26.112Z</time>
      </trkpt>
      <trkpt lat="44.73134" lon="0.30987">
        <ele>141.087284</ele>
        <time>2022-07-11T15:53:37.714Z</time>
      </trkpt>
      <trkpt lat="44.73163" lon="0.31051">
        <ele>137.505663</ele>
        <time>2022-07-11T15:53:44.449Z</time>
      </trkpt>
      <trkpt lat="44.73166" lon="0.3109">
        <ele>135.657027</ele>
        <time>2022-07-11T15:53:48.071Z</time>
      </trkpt>
      <trkpt lat="44.73154" lon="0.31165">
        <ele>132.07174</ele>
        <time>2022-07-11T15:53:55.291Z</time>
      </trkpt>
      <trkpt lat="44.73116" lon="0.31289">
        <ele>129.554425</ele>
        <time>2022-07-11T15:54:09.297Z</time>
      </trkpt>
      <trkpt lat="44.73096" lon="0.31479">
        <ele>127.445574</ele>
        <time>2022-07-11T15:54:31.482Z</time>
      </trkpt>
      <trkpt lat="44.73113" lon="0.31522">
        <ele>127.411968</ele>
        <time>2022-07-11T15:54:37.624Z</time>
      </trkpt>
      <trkpt lat="44.7316" lon="0.31577">
        <ele>127.353912</ele>
        <time>2022-07-11T15:54:49.416Z</time>
      </trkpt>
      <trkpt lat="44.7317" lon="0.31595">
        <ele>127.338598</ele>
        <time>2022-07-11T15:54:52.925Z</time>
      </trkpt>
      <trkpt lat="44.73193" lon="0.3167">
        <ele>127.674731</ele>
        <time>2022-07-11T15:55:05.954Z</time>
      </trkpt>
      <trkpt lat="44.73197" lon="0.31684">
        <ele>127.78796</ele>
        <time>2022-07-11T15:55:08.450Z</time>
      </trkpt>
      <trkpt lat="44.73201" lon="0.31702">
        <ele>127.930559</ele>
        <time>2022-07-11T15:55:11.576Z</time>
      </trkpt>
      <trkpt lat="44.73221" lon="0.31772">
        <ele>128.498802</ele>
        <time>2022-07-11T15:55:24.143Z</time>
      </trkpt>
      <trkpt lat="44.73239" lon="0.31808">
        <ele>128.82268</ele>
        <time>2022-07-11T15:55:31.226Z</time>
      </trkpt>
      <trkpt lat="44.73279" lon="0.31861">
        <ele>129.256316</ele>
        <time>2022-07-11T15:55:44.016Z</time>
      </trkpt>
      <trkpt lat="44.7331" lon="0.31899">
        <ele>129.345254</ele>
        <time>2022-07-11T15:55:53.057Z</time>
      </trkpt>
      <trkpt lat="44.73362" lon="0.32008">
        <ele>129.548127</ele>
        <time>2022-07-11T15:56:10.187Z</time>
      </trkpt>
      <trkpt lat="44.73391" lon="0.3207">
        <ele>129.41785</ele>
        <time>2022-07-11T15:56:19.508Z</time>
      </trkpt>
      <trkpt lat="44.73406" lon="0.32105">
        <ele>129.2053</ele>
        <time>2022-07-11T15:56:24.501Z</time>
      </trkpt>
      <trkpt lat="44.73426" lon="0.32133">
        <ele>128.990693</ele>
        <time>2022-07-11T15:56:29.529Z</time>
      </trkpt>
      <trkpt lat="44.7346" lon="0.32155">
        <ele>128.718656</ele>
        <time>2022-07-11T15:56:35.816Z</time>
      </trkpt>
      <trkpt lat="44.73541" lon="0.32186">
        <ele>127.710967</ele>
        <time>2022-07-11T15:56:49.839Z</time>
      </trkpt>
      <trkpt lat="44.73573" lon="0.32199">
        <ele>126.974522</ele>
        <time>2022-07-11T15:56:54.938Z</time>
      </trkpt>
      <trkpt lat="44.73648" lon="0.32258">
        <ele>125.00593</ele>
        <time>2022-07-11T15:57:07.921Z</time>
      </trkpt>
      <trkpt lat="44.73688" lon="0.32288">
        <ele>123.847027</ele>
        <time>2022-07-11T15:57:14.380Z</time>
      </trkpt>
      <trkpt lat="44.73838" lon="0.32389">
        <ele>117.475701</ele>
        <time>2022-07-11T15:57:37.471Z</time>
      </trkpt>
      <trkpt lat="44.73915" lon="0.32405">
        <ele>114.172862</ele>
        <time>2022-07-11T15:57:48.038Z</time>
      </trkpt>
      <trkpt lat="44.73942" lon="0.32418">
        <ele>112.956916</ele>
        <time>2022-07-11T15:57:51.848Z</time>
      </trkpt>
      <trkpt lat="44.73912" lon="0.32664">
        <ele>107.662141</ele>
        <time>2022-07-11T15:58:16.701Z</time>
      </trkpt>
      <trkpt lat="44.73909" lon="0.32718">
        <ele>106.896444</ele>
        <time>2022-07-11T15:58:23.072Z</time>
      </trkpt>
      <trkpt lat="44.73911" lon="0.32727">
        <ele>106.765468</ele>
        <time>2022-07-11T15:58:24.297Z</time>
      </trkpt>
      <trkpt lat="44.73932" lon="0.32761">
        <ele>106.129819</ele>
        <time>2022-07-11T15:58:30.135Z</time>
      </trkpt>
      <trkpt lat="44.74104" lon="0.32967">
        <ele>109.344203</ele>
        <time>2022-07-11T15:59:25.966Z</time>
      </trkpt>
      <trkpt lat="44.74135" lon="0.32943">
        <ele>110.087544</ele>
        <time>2022-07-11T15:59:34.754Z</time>
      </trkpt>
      <trkpt lat="44.7421" lon="0.32888">
        <ele>111.857058</ele>
        <time>2022-07-11T15:59:57.111Z</time>
      </trkpt>
      <trkpt lat="44.74253" lon="0.32971">
        <ele>114.692671</ele>
        <time>2022-07-11T16:00:19.470Z</time>
      </trkpt>
      <trkpt lat="44.74317" lon="0.33083">
        <ele>119.228563</ele>
        <time>2022-07-11T16:00:58.887Z</time>
      </trkpt>
      <trkpt lat="44.74332" lon="0.3311">
        <ele>120.326473</ele>
        <time>2022-07-11T16:01:09.113Z</time>
      </trkpt>
      <trkpt lat="44.74418" lon="0.33262">
        <ele>128.044848</ele>
        <time>2022-07-11T16:02:05.207Z</time>
      </trkpt>
      <trkpt lat="44.74429" lon="0.33293">
        <ele>129.437163</ele>
        <time>2022-07-11T16:02:15.438Z</time>
      </trkpt>
      <trkpt lat="44.74469" lon="0.33342">
        <ele>132.595747</ele>
        <time>2022-07-11T16:02:38.258Z</time>
      </trkpt>
      <trkpt lat="44.7454" lon="0.3342">
        <ele>138.097401</ele>
        <time>2022-07-11T16:03:14.647Z</time>
      </trkpt>
      <trkpt lat="44.74552" lon="0.33443">
        <ele>139.336025</ele>
        <time>2022-07-11T16:03:23.719Z</time>
      </trkpt>
      <trkpt lat="44.74553" lon="0.33491">
        <ele>141.461742</ele>
        <time>2022-07-11T16:03:40.043Z</time>
      </trkpt>
      <trkpt lat="44.74597" lon="0.33569">
        <ele>146.699322</ele>
        <time>2022-07-11T16:04:14.506Z</time>
      </trkpt>
      <trkpt lat="44.74648" lon="0.33643">
        <ele>152.099221</ele>
        <time>2022-07-11T16:04:49.542Z</time>
      </trkpt>
      <trkpt lat="44.74739" lon="0.33763">
        <ele>160.756633</ele>
        <time>2022-07-11T16:05:50.623Z</time>
      </trkpt>
      <trkpt lat="44.74721" lon="0.33894">
        <ele>166.994337</ele>
        <time>2022-07-11T16:06:31.785Z</time>
      </trkpt>
      <trkpt lat="44.7472" lon="0.33905">
        <ele>167.310637</ele>
        <time>2022-07-11T16:06:34.985Z</time>
      </trkpt>
      <trkpt lat="44.74722" lon="0.33922">
        <ele>167.783094</ele>
        <time>2022-07-11T16:06:39.804Z</time>
      </trkpt>
      <trkpt lat="44.74743" lon="0.33975">
        <ele>169.471486</ele>
        <time>2022-07-11T16:06:55.824Z</time>
      </trkpt>
      <trkpt lat="44.74791" lon="0.34054">
        <ele>172.319913</ele>
        <time>2022-07-11T16:07:19.686Z</time>
      </trkpt>
      <trkpt lat="44.74805" lon="0.34068">
        <ele>172.989804</ele>
        <time>2022-07-11T16:07:24.657Z</time>
      </trkpt>
      <trkpt lat="44.74866" lon="0.341">
        <ele>174.160768</ele>
        <time>2022-07-11T16:07:42.883Z</time>
      </trkpt>
      <trkpt lat="44.74894" lon="0.34101">
        <ele>174.401235</ele>
        <time>2022-07-11T16:07:49.300Z</time>
      </trkpt>
      <trkpt lat="44.74923" lon="0.34094">
        <ele>174.659305</ele>
        <time>2022-07-11T16:07:55.453Z</time>
      </trkpt>
      <trkpt lat="44.74955" lon="0.341">
        <ele>174.934283</ele>
        <time>2022-07-11T16:08:01.473Z</time>
      </trkpt>
      <trkpt lat="44.74977" lon="0.34111">
        <ele>175.135159</ele>
        <time>2022-07-11T16:08:05.594Z</time>
      </trkpt>
      <trkpt lat="44.75019" lon="0.34138">
        <ele>175.088389</ele>
        <time>2022-07-11T16:08:13.988Z</time>
      </trkpt>
      <trkpt lat="44.75031" lon="0.3416">
        <ele>174.901704</ele>
        <time>2022-07-11T16:08:17.539Z</time>
      </trkpt>
      <trkpt lat="44.75042" lon="0.34189">
        <ele>174.685549</ele>
        <time>2022-07-11T16:08:21.587Z</time>
      </trkpt>
      <trkpt lat="44.75066" lon="0.34266">
        <ele>174.116235</ele>
        <time>2022-07-11T16:08:32.170Z</time>
      </trkpt>
      <trkpt lat="44.75111" lon="0.34407">
        <ele>172.253704</ele>
        <time>2022-07-11T16:08:48.670Z</time>
      </trkpt>
      <trkpt lat="44.75111" lon="0.34416">
        <ele>172.100246</ele>
        <time>2022-07-11T16:08:49.661Z</time>
      </trkpt>
      <trkpt lat="44.7511" lon="0.3454">
        <ele>169.99508</ele>
        <time>2022-07-11T16:09:02.901Z</time>
      </trkpt>
      <trkpt lat="44.75116" lon="0.34629">
        <ele>168.466215</ele>
        <time>2022-07-11T16:09:12.264Z</time>
      </trkpt>
      <trkpt lat="44.75122" lon="0.34655">
        <ele>167.991654</ele>
        <time>2022-07-11T16:09:15.037Z</time>
      </trkpt>
      <trkpt lat="44.7515" lon="0.34726">
        <ele>166.612579</ele>
        <time>2022-07-11T16:09:23.512Z</time>
      </trkpt>
      <trkpt lat="44.7515" lon="0.34737">
        <ele>166.435752</ele>
        <time>2022-07-11T16:09:24.596Z</time>
      </trkpt>
      <trkpt lat="44.75139" lon="0.34806">
        <ele>165.217844</ele>
        <time>2022-07-11T16:09:32.354Z</time>
      </trkpt>
      <trkpt lat="44.75124" lon="0.34846">
        <ele>164.557442</ele>
        <time>2022-07-11T16:09:37.339Z</time>
      </trkpt>
      <trkpt lat="44.75115" lon="0.34892">
        <ele>163.920193</ele>
        <time>2022-07-11T16:09:42.784Z</time>
      </trkpt>
      <trkpt lat="44.75116" lon="0.34987">
        <ele>162.636661</ele>
        <time>2022-07-11T16:09:53.635Z</time>
      </trkpt>
      <trkpt lat="44.75132" lon="0.35141">
        <ele>159.454881</ele>
        <time>2022-07-11T16:10:10.141Z</time>
      </trkpt>
      <trkpt lat="44.7514" lon="0.3532">
        <ele>154.441199</ele>
        <time>2022-07-11T16:10:27.465Z</time>
      </trkpt>
      <trkpt lat="44.75148" lon="0.35528">
        <ele>146.959116</ele>
        <time>2022-07-11T16:10:46.982Z</time>
      </trkpt>
      <trkpt lat="44.75156" lon="0.35616">
        <ele>143.606263</ele>
        <time>2022-07-11T16:10:55.423Z</time>
      </trkpt>
      <trkpt lat="44.75144" lon="0.35714">
        <ele>139.664556</ele>
        <time>2022-07-11T16:11:04.668Z</time>
      </trkpt>
      <trkpt lat="44.75138" lon="0.35763">
        <ele>137.714662</ele>
        <time>2022-07-11T16:11:09.231Z</time>
      </trkpt>
      <trkpt lat="44.75125" lon="0.35862">
        <ele>133.689072</ele>
        <time>2022-07-11T16:11:18.490Z</time>
      </trkpt>
      <trkpt lat="44.7512" lon="0.35908">
        <ele>131.806495</ele>
        <time>2022-07-11T16:11:22.708Z</time>
      </trkpt>
      <trkpt lat="44.75119" lon="0.36058">
        <ele>125.70138</ele>
        <time>2022-07-11T16:11:36.461Z</time>
      </trkpt>
      <trkpt lat="44.75136" lon="0.36207">
        <ele>121.275494</ele>
        <time>2022-07-11T16:11:51.237Z</time>
      </trkpt>
      <trkpt lat="44.75193" lon="0.36611">
        <ele>111.248302</ele>
        <time>2022-07-11T16:12:32.753Z</time>
      </trkpt>
      <trkpt lat="44.75219" lon="0.36933">
        <ele>106.736205</ele>
        <time>2022-07-11T16:13:07.487Z</time>
      </trkpt>
      <trkpt lat="44.75215" lon="0.36973">
        <ele>106.500271</ele>
        <time>2022-07-11T16:13:12.693Z</time>
      </trkpt>
      <trkpt lat="44.75206" lon="0.37014">
        <ele>106.2522</ele>
        <time>2022-07-11T16:13:18.434Z</time>
      </trkpt>
      <trkpt lat="44.75207" lon="0.37043">
        <ele>106.085353</ele>
        <time>2022-07-11T16:13:22.590Z</time>
      </trkpt>
      <trkpt lat="44.75209" lon="0.37053">
        <ele>106.021786</ele>
        <time>2022-07-11T16:13:24.226Z</time>
      </trkpt>
      <trkpt lat="44.75235" lon="0.37156">
        <ele>106.66411</ele>
        <time>2022-07-11T16:13:41.922Z</time>
      </trkpt>
      <trkpt lat="44.75237" lon="0.37169">
        <ele>106.766196</ele>
        <time>2022-07-11T16:13:44.102Z</time>
      </trkpt>
      <trkpt lat="44.75273" lon="0.37296">
        <ele>107.86336</ele>
        <time>2022-07-11T16:14:07.430Z</time>
      </trkpt>
      <trkpt lat="44.75275" lon="0.37301">
        <ele>107.905247</ele>
        <time>2022-07-11T16:14:08.320Z</time>
      </trkpt>
      <trkpt lat="44.75289" lon="0.37354">
        <ele>108.417285</ele>
        <time>2022-07-11T16:14:17.574Z</time>
      </trkpt>
      <trkpt lat="44.7529" lon="0.37361">
        <ele>108.484459</ele>
        <time>2022-07-11T16:14:18.713Z</time>
      </trkpt>
      <trkpt lat="44.7529" lon="0.37365">
        <ele>108.525828</ele>
        <time>2022-07-11T16:14:19.379Z</time>
      </trkpt>
      <trkpt lat="44.7529" lon="0.37425">
        <ele>109.071633</ele>
        <time>2022-07-11T16:14:28.904Z</time>
      </trkpt>
      <trkpt lat="44.75279" lon="0.37582">
        <ele>110.749253</ele>
        <time>2022-07-11T16:14:55.668Z</time>
      </trkpt>
      <trkpt lat="44.75279" lon="0.37681">
        <ele>112.521666</ele>
        <time>2022-07-11T16:15:15.312Z</time>
      </trkpt>
      <trkpt lat="44.75287" lon="0.3778">
        <ele>114.28932</ele>
        <time>2022-07-11T16:15:36.817Z</time>
      </trkpt>
      <trkpt lat="44.75282" lon="0.37855">
        <ele>116.042022</ele>
        <time>2022-07-11T16:15:53.301Z</time>
      </trkpt>
      <trkpt lat="44.75266" lon="0.37917">
        <ele>117.822576</ele>
        <time>2022-07-11T16:16:07.687Z</time>
      </trkpt>
      <trkpt lat="44.75198" lon="0.38097">
        <ele>123.891871</ele>
        <time>2022-07-11T16:16:59.775Z</time>
      </trkpt>
      <trkpt lat="44.75196" lon="0.38102">
        <ele>124.122525</ele>
        <time>2022-07-11T16:17:01.388Z</time>
      </trkpt>
      <trkpt lat="44.75164" lon="0.3819">
        <ele>127.68024</ele>
        <time>2022-07-11T16:17:27.687Z</time>
      </trkpt>
      <trkpt lat="44.75158" lon="0.3822">
        <ele>128.80231</ele>
        <time>2022-07-11T16:17:36.692Z</time>
      </trkpt>
      <trkpt lat="44.75143" lon="0.38377">
        <ele>134.244428</ele>
        <time>2022-07-11T16:18:25.428Z</time>
      </trkpt>
      <trkpt lat="44.75143" lon="0.38436">
        <ele>136.203938</ele>
        <time>2022-07-11T16:18:42.954Z</time>
      </trkpt>
      <trkpt lat="44.75147" lon="0.38671">
        <ele>139.311905</ele>
        <time>2022-07-11T16:19:30.248Z</time>
      </trkpt>
      <trkpt lat="44.75145" lon="0.38691">
        <ele>139.328785</ele>
        <time>2022-07-11T16:19:32.531Z</time>
      </trkpt>
      <trkpt lat="44.75165" lon="0.38706">
        <ele>139.354834</ele>
        <time>2022-07-11T16:19:36.030Z</time>
      </trkpt>
      <trkpt lat="44.7519" lon="0.38739">
        <ele>139.39409</ele>
        <time>2022-07-11T16:19:41.013Z</time>
      </trkpt>
      <trkpt lat="44.75213" lon="0.38795">
        <ele>137.107356</ele>
        <time>2022-07-11T16:19:47.313Z</time>
      </trkpt>
      <trkpt lat="44.75226" lon="0.38812">
        <ele>136.124762</ele>
        <time>2022-07-11T16:19:49.570Z</time>
      </trkpt>
      <trkpt lat="44.75265" lon="0.3882">
        <ele>133.904715</ele>
        <time>2022-07-11T16:19:54.599Z</time>
      </trkpt>
      <trkpt lat="44.75278" lon="0.38831">
        <ele>133.057057</ele>
        <time>2022-07-11T16:19:56.533Z</time>
      </trkpt>
      <trkpt lat="44.75288" lon="0.38851">
        <ele>132.08515</ele>
        <time>2022-07-11T16:19:58.715Z</time>
      </trkpt>
      <trkpt lat="44.75342" lon="0.39028">
        <ele>125.121419</ele>
        <time>2022-07-11T16:20:16.538Z</time>
      </trkpt>
      <trkpt lat="44.75364" lon="0.39066">
        <ele>123.453782</ele>
        <time>2022-07-11T16:20:21.175Z</time>
      </trkpt>
      <trkpt lat="44.75378" lon="0.39073">
        <ele>122.730756</ele>
        <time>2022-07-11T16:20:23.139Z</time>
      </trkpt>
      <trkpt lat="44.75463" lon="0.39087">
        <ele>119.737222</ele>
        <time>2022-07-11T16:20:35.384Z</time>
      </trkpt>
      <trkpt lat="44.75493" lon="0.39108">
        <ele>118.989655</ele>
        <time>2022-07-11T16:20:40.507Z</time>
      </trkpt>
      <trkpt lat="44.75523" lon="0.39138">
        <ele>118.201519</ele>
        <time>2022-07-11T16:20:46.032Z</time>
      </trkpt>
      <trkpt lat="44.75588" lon="0.39199">
        <ele>116.593156</ele>
        <time>2022-07-11T16:20:58.957Z</time>
      </trkpt>
      <trkpt lat="44.75605" lon="0.39218">
        <ele>116.312465</ele>
        <time>2022-07-11T16:21:02.410Z</time>
      </trkpt>
      <trkpt lat="44.75637" lon="0.39281">
        <ele>115.597991</ele>
        <time>2022-07-11T16:21:11.293Z</time>
      </trkpt>
      <trkpt lat="44.75701" lon="0.39353">
        <ele>114.528221</ele>
        <time>2022-07-11T16:21:24.549Z</time>
      </trkpt>
      <trkpt lat="44.75775" lon="0.39518">
        <ele>112.70172</ele>
        <time>2022-07-11T16:21:47.170Z</time>
      </trkpt>
      <trkpt lat="44.75806" lon="0.39611">
        <ele>111.719529</ele>
        <time>2022-07-11T16:21:58.722Z</time>
      </trkpt>
      <trkpt lat="44.75826" lon="0.39707">
        <ele>110.694914</ele>
        <time>2022-07-11T16:22:10.174Z</time>
      </trkpt>
      <trkpt lat="44.75838" lon="0.39848">
        <ele>109.121408</ele>
        <time>2022-07-11T16:22:26.356Z</time>
      </trkpt>
      <trkpt lat="44.7586" lon="0.39962">
        <ele>107.192322</ele>
        <time>2022-07-11T16:22:39.489Z</time>
      </trkpt>
      <trkpt lat="44.75876" lon="0.40023">
        <ele>106.121265</ele>
        <time>2022-07-11T16:22:46.513Z</time>
      </trkpt>
      <trkpt lat="44.75908" lon="0.40121">
        <ele>103.618372</ele>
        <time>2022-07-11T16:22:57.133Z</time>
      </trkpt>
      <trkpt lat="44.7593" lon="0.40156">
        <ele>102.246646</ele>
        <time>2022-07-11T16:23:01.665Z</time>
      </trkpt>
      <trkpt lat="44.7595" lon="0.40178">
        <ele>101.204002</ele>
        <time>2022-07-11T16:23:05.092Z</time>
      </trkpt>
      <trkpt lat="44.75946" lon="0.40208">
        <ele>100.320458</ele>
        <time>2022-07-11T16:23:07.817Z</time>
      </trkpt>
      <trkpt lat="44.75938" lon="0.40287">
        <ele>97.955992</ele>
        <time>2022-07-11T16:23:15.286Z</time>
      </trkpt>
      <trkpt lat="44.75925" lon="0.40415">
        <ele>95.984923</ele>
        <time>2022-07-11T16:23:27.513Z</time>
      </trkpt>
      <trkpt lat="44.75926" lon="0.40577">
        <ele>94.389869</ele>
        <time>2022-07-11T16:23:46.391Z</time>
      </trkpt>
      <trkpt lat="44.75897" lon="0.40705">
        <ele>95.568773</ele>
        <time>2022-07-11T16:24:09.364Z</time>
      </trkpt>
      <trkpt lat="44.75895" lon="0.40829">
        <ele>96.030728</ele>
        <time>2022-07-11T16:24:32.728Z</time>
      </trkpt>
      <trkpt lat="44.75905" lon="0.40892">
        <ele>95.598873</ele>
        <time>2022-07-11T16:24:42.442Z</time>
      </trkpt>
      <trkpt lat="44.75923" lon="0.40902">
        <ele>95.413303</ele>
        <time>2022-07-11T16:24:45.652Z</time>
      </trkpt>
      <trkpt lat="44.75932" lon="0.40934">
        <ele>95.175464</ele>
        <time>2022-07-11T16:24:49.627Z</time>
      </trkpt>
      <trkpt lat="44.75932" lon="0.40964">
        <ele>94.978377</ele>
        <time>2022-07-11T16:24:52.640Z</time>
      </trkpt>
      <trkpt lat="44.75961" lon="0.40997">
        <ele>94.622595</ele>
        <time>2022-07-11T16:24:57.906Z</time>
      </trkpt>
      <trkpt lat="44.75932" lon="0.41055">
        <ele>92.536885</ele>
        <time>2022-07-11T16:25:04.454Z</time>
      </trkpt>
      <trkpt lat="44.75948" lon="0.4107">
        <ele>91.702058</ele>
        <time>2022-07-11T16:25:06.926Z</time>
      </trkpt>
      <trkpt lat="44.75954" lon="0.41077">
        <ele>91.354886</ele>
        <time>2022-07-11T16:25:07.968Z</time>
      </trkpt>
      <trkpt lat="44.75995" lon="0.4112">
        <ele>89.152569</ele>
        <time>2022-07-11T16:25:14.570Z</time>
      </trkpt>
      <trkpt lat="44.76011" lon="0.4114">
        <ele>88.203232</ele>
        <time>2022-07-11T16:25:17.494Z</time>
      </trkpt>
      <trkpt lat="44.76031" lon="0.41162">
        <ele>87.119748</ele>
        <time>2022-07-11T16:25:20.994Z</time>
      </trkpt>
      <trkpt lat="44.76089" lon="0.41226">
        <ele>88.212477</ele>
        <time>2022-07-11T16:25:33.064Z</time>
      </trkpt>
      <trkpt lat="44.76252" lon="0.41411">
        <ele>95.138533</ele>
        <time>2022-07-11T16:26:51.357Z</time>
      </trkpt>
      <trkpt lat="44.76296" lon="0.41461">
        <ele>97.788944</ele>
        <time>2022-07-11T16:27:12.637Z</time>
      </trkpt>
      <trkpt lat="44.76401" lon="0.41579">
        <ele>103.569679</ele>
        <time>2022-07-11T16:28:01.977Z</time>
      </trkpt>
      <trkpt lat="44.76482" lon="0.41663">
        <ele>107.402075</ele>
        <time>2022-07-11T16:28:35.772Z</time>
      </trkpt>
      <trkpt lat="44.76545" lon="0.41668">
        <ele>109.089555</ele>
        <time>2022-07-11T16:28:56.209Z</time>
      </trkpt>
      <trkpt lat="44.76564" lon="0.41687">
        <ele>109.697765</ele>
        <time>2022-07-11T16:29:02.965Z</time>
      </trkpt>
      <trkpt lat="44.76568" lon="0.41705">
        <ele>110.056015</ele>
        <time>2022-07-11T16:29:06.768Z</time>
      </trkpt>
      <trkpt lat="44.76566" lon="0.41748">
        <ele>110.875517</ele>
        <time>2022-07-11T16:29:14.492Z</time>
      </trkpt>
      <trkpt lat="44.76559" lon="0.41766">
        <ele>111.274672</ele>
        <time>2022-07-11T16:29:18.008Z</time>
      </trkpt>
      <trkpt lat="44.76512" lon="0.41831">
        <ele>112.317561</ele>
        <time>2022-07-11T16:29:32.423Z</time>
      </trkpt>
      <trkpt lat="44.76501" lon="0.41891">
        <ele>112.951918</ele>
        <time>2022-07-11T16:29:42.541Z</time>
      </trkpt>
      <trkpt lat="44.76493" lon="0.41942">
        <ele>113.490853</ele>
        <time>2022-07-11T16:29:51.630Z</time>
      </trkpt>
      <trkpt lat="44.76444" lon="0.42253">
        <ele>117.811045</ele>
        <time>2022-07-11T16:30:52.368Z</time>
      </trkpt>
      <trkpt lat="44.76442" lon="0.42282">
        <ele>118.009198</ele>
        <time>2022-07-11T16:30:58.006Z</time>
      </trkpt>
      <trkpt lat="44.76474" lon="0.424">
        <ele>118.872287</ele>
        <time>2022-07-11T16:31:20.389Z</time>
      </trkpt>
      <trkpt lat="44.76485" lon="0.42449">
        <ele>119.220516</ele>
        <time>2022-07-11T16:31:27.837Z</time>
      </trkpt>
      <trkpt lat="44.76493" lon="0.42488">
        <ele>119.467389</ele>
        <time>2022-07-11T16:31:32.931Z</time>
      </trkpt>
      <trkpt lat="44.76502" lon="0.42543">
        <ele>118.734664</ele>
        <time>2022-07-11T16:31:39.343Z</time>
      </trkpt>
      <trkpt lat="44.76503" lon="0.42547">
        <ele>118.67067</ele>
        <time>2022-07-11T16:31:39.861Z</time>
      </trkpt>
      <trkpt lat="44.76503" lon="0.42556">
        <ele>118.563887</ele>
        <time>2022-07-11T16:31:40.753Z</time>
      </trkpt>
      <trkpt lat="44.76506" lon="0.42623">
        <ele>117.685418</ele>
        <time>2022-07-11T16:31:48.022Z</time>
      </trkpt>
      <trkpt lat="44.76506" lon="0.42637">
        <ele>117.507431</ele>
        <time>2022-07-11T16:31:49.471Z</time>
      </trkpt>
      <trkpt lat="44.7651" lon="0.42675">
        <ele>117.009211</ele>
        <time>2022-07-11T16:31:53.627Z</time>
      </trkpt>
      <trkpt lat="44.76514" lon="0.42678">
        <ele>116.920937</ele>
        <time>2022-07-11T16:31:54.334Z</time>
      </trkpt>
      <trkpt lat="44.76577" lon="0.42729">
        <ele>115.96282</ele>
        <time>2022-07-11T16:32:05.252Z</time>
      </trkpt>
      <trkpt lat="44.76577" lon="0.42745">
        <ele>115.881096</ele>
        <time>2022-07-11T16:32:06.980Z</time>
      </trkpt>
      <trkpt lat="44.76459" lon="0.42962">
        <ele>115.731439</ele>
        <time>2022-07-11T16:32:42.315Z</time>
      </trkpt>
      <trkpt lat="44.7635" lon="0.43181">
        <ele>117.881186</ele>
        <time>2022-07-11T16:33:34.164Z</time>
      </trkpt>
      <trkpt lat="44.76321" lon="0.43223">
        <ele>118.173857</ele>
        <time>2022-07-11T16:33:43.927Z</time>
      </trkpt>
      <trkpt lat="44.76308" lon="0.43232">
        <ele>118.27071</ele>
        <time>2022-07-11T16:33:46.983Z</time>
      </trkpt>
      <trkpt lat="44.7626" lon="0.43244">
        <ele>118.615683</ele>
        <time>2022-07-11T16:33:55.643Z</time>
      </trkpt>
      <trkpt lat="44.76245" lon="0.43269">
        <ele>117.968612</ele>
        <time>2022-07-11T16:33:59.154Z</time>
      </trkpt>
      <trkpt lat="44.76232" lon="0.43308">
        <ele>116.760079</ele>
        <time>2022-07-11T16:34:03.651Z</time>
      </trkpt>
      <trkpt lat="44.76227" lon="0.43326">
        <ele>116.224127</ele>
        <time>2022-07-11T16:34:05.591Z</time>
      </trkpt>
      <trkpt lat="44.76206" lon="0.434">
        <ele>114.005688</ele>
        <time>2022-07-11T16:34:13.300Z</time>
      </trkpt>
      <trkpt lat="44.76199" lon="0.43464">
        <ele>112.170709</ele>
        <time>2022-07-11T16:34:19.348Z</time>
      </trkpt>
      <trkpt lat="44.7619" lon="0.43771">
        <ele>101.7633</ele>
        <time>2022-07-11T16:34:47.873Z</time>
      </trkpt>
      <trkpt lat="44.76176" lon="0.43875">
        <ele>100.917864</ele>
        <time>2022-07-11T16:34:59.015Z</time>
      </trkpt>
      <trkpt lat="44.76159" lon="0.43977">
        <ele>100.074927</ele>
        <time>2022-07-11T16:35:15.802Z</time>
      </trkpt>
      <trkpt lat="44.76195" lon="0.43998">
        <ele>101.411549</ele>
        <time>2022-07-11T16:35:27.661Z</time>
      </trkpt>
      <trkpt lat="44.76185" lon="0.44071">
        <ele>103.82812</ele>
        <time>2022-07-11T16:35:46.680Z</time>
      </trkpt>
      <trkpt lat="44.76169" lon="0.441">
        <ele>104.995888</ele>
        <time>2022-07-11T16:35:56.987Z</time>
      </trkpt>
      <trkpt lat="44.76134" lon="0.44144">
        <ele>107.13811</ele>
        <time>2022-07-11T16:36:16.350Z</time>
      </trkpt>
      <trkpt lat="44.76125" lon="0.44157">
        <ele>107.730505</ele>
        <time>2022-07-11T16:36:21.858Z</time>
      </trkpt>
      <trkpt lat="44.76112" lon="0.44177">
        <ele>108.539597</ele>
        <time>2022-07-11T16:36:30.378Z</time>
      </trkpt>
      <trkpt lat="44.76108" lon="0.44197">
        <ele>109.133136</ele>
        <time>2022-07-11T16:36:36.674Z</time>
      </trkpt>
      <trkpt lat="44.76097" lon="0.4425">
        <ele>110.715337</ele>
        <time>2022-07-11T16:36:52.690Z</time>
      </trkpt>
      <trkpt lat="44.76089" lon="0.44289">
        <ele>111.880915</ele>
        <time>2022-07-11T16:37:03.325Z</time>
      </trkpt>
      <trkpt lat="44.76063" lon="0.44372">
        <ele>114.482139</ele>
        <time>2022-07-11T16:37:23.240Z</time>
      </trkpt>
      <trkpt lat="44.76054" lon="0.44399">
        <ele>115.339127</ele>
        <time>2022-07-11T16:37:29.109Z</time>
      </trkpt>
      <trkpt lat="44.76044" lon="0.44413">
        <ele>115.43841</ele>
        <time>2022-07-11T16:37:33.343Z</time>
      </trkpt>
      <trkpt lat="44.76026" lon="0.4442">
        <ele>115.483603</ele>
        <time>2022-07-11T16:37:37.894Z</time>
      </trkpt>
      <trkpt lat="44.75917" lon="0.44393">
        <ele>115.754887</ele>
        <time>2022-07-11T16:37:58.916Z</time>
      </trkpt>
      <trkpt lat="44.75904" lon="0.4441">
        <ele>115.797355</ele>
        <time>2022-07-11T16:38:01.773Z</time>
      </trkpt>
      <trkpt lat="44.75849" lon="0.44622">
        <ele>113.807738</ele>
        <time>2022-07-11T16:38:27.317Z</time>
      </trkpt>
      <trkpt lat="44.75838" lon="0.44664">
        <ele>113.335727</ele>
        <time>2022-07-11T16:38:32.365Z</time>
      </trkpt>
      <trkpt lat="44.75823" lon="0.44724">
        <ele>112.633649</ele>
        <time>2022-07-11T16:38:39.515Z</time>
      </trkpt>
      <trkpt lat="44.75823" lon="0.44738">
        <ele>112.467213</ele>
        <time>2022-07-11T16:38:41.180Z</time>
      </trkpt>
      <trkpt lat="44.7583" lon="0.44769">
        <ele>112.097927</ele>
        <time>2022-07-11T16:38:44.856Z</time>
      </trkpt>
      <trkpt lat="44.75845" lon="0.44797">
        <ele>111.706034</ele>
        <time>2022-07-11T16:38:48.828Z</time>
      </trkpt>
      <trkpt lat="44.75857" lon="0.44825">
        <ele>111.330549</ele>
        <time>2022-07-11T16:38:52.654Z</time>
      </trkpt>
      <trkpt lat="44.75871" lon="0.44892">
        <ele>110.546646</ele>
        <time>2022-07-11T16:39:00.689Z</time>
      </trkpt>
      <trkpt lat="44.75868" lon="0.44926">
        <ele>109.916581</ele>
        <time>2022-07-11T16:39:04.522Z</time>
      </trkpt>
      <trkpt lat="44.7587" lon="0.44937">
        <ele>109.652298</ele>
        <time>2022-07-11T16:39:05.692Z</time>
      </trkpt>
      <trkpt lat="44.75871" lon="0.44959">
        <ele>109.108642</ele>
        <time>2022-07-11T16:39:08.010Z</time>
      </trkpt>
      <trkpt lat="44.7583" lon="0.45082">
        <ele>105.764678</ele>
        <time>2022-07-11T16:39:21.585Z</time>
      </trkpt>
      <trkpt lat="44.75956" lon="0.45156">
        <ele>100.961699</ele>
        <time>2022-07-11T16:39:39.126Z</time>
      </trkpt>
      <trkpt lat="44.76013" lon="0.45214">
        <ele>98.422422</ele>
        <time>2022-07-11T16:39:48.280Z</time>
      </trkpt>
      <trkpt lat="44.76088" lon="0.4535">
        <ele>99.536561</ele>
        <time>2022-07-11T16:40:11.433Z</time>
      </trkpt>
      <trkpt lat="44.76091" lon="0.45357">
        <ele>99.640682</ele>
        <time>2022-07-11T16:40:13.267Z</time>
      </trkpt>
      <trkpt lat="44.76102" lon="0.45377">
        <ele>99.972017</ele>
        <time>2022-07-11T16:40:18.877Z</time>
      </trkpt>
      <trkpt lat="44.76138" lon="0.45448">
        <ele>101.331365</ele>
        <time>2022-07-11T16:40:41.898Z</time>
      </trkpt>
      <trkpt lat="44.76172" lon="0.45497">
        <ele>103.811208</ele>
        <time>2022-07-11T16:41:02.259Z</time>
      </trkpt>
      <trkpt lat="44.76225" lon="0.4555">
        <ele>107.135785</ele>
        <time>2022-07-11T16:41:32.592Z</time>
      </trkpt>
      <trkpt lat="44.76296" lon="0.45685">
        <ele>109.827129</ele>
        <time>2022-07-11T16:42:10.212Z</time>
      </trkpt>
      <trkpt lat="44.76301" lon="0.4569">
        <ele>109.791078</ele>
        <time>2022-07-11T16:42:11.632Z</time>
      </trkpt>
      <trkpt lat="44.76308" lon="0.45697">
        <ele>109.748036</ele>
        <time>2022-07-11T16:42:13.173Z</time>
      </trkpt>
      <trkpt lat="44.76355" lon="0.4571">
        <ele>109.498449</ele>
        <time>2022-07-11T16:42:20.980Z</time>
      </trkpt>
      <trkpt lat="44.76381" lon="0.45739">
        <ele>109.328042</ele>
        <time>2022-07-11T16:42:25.790Z</time>
      </trkpt>
      <trkpt lat="44.76449" lon="0.45839">
        <ele>105.671989</ele>
        <time>2022-07-11T16:42:38.818Z</time>
      </trkpt>
      <trkpt lat="44.76547" lon="0.45902">
        <ele>100.703386</ele>
        <time>2022-07-11T16:42:53.146Z</time>
      </trkpt>
      <trkpt lat="44.76554" lon="0.45918">
        <ele>100.480903</ele>
        <time>2022-07-11T16:42:54.999Z</time>
      </trkpt>
      <trkpt lat="44.76558" lon="0.45956">
        <ele>100.00219</ele>
        <time>2022-07-11T16:42:58.862Z</time>
      </trkpt>
      <trkpt lat="44.76561" lon="0.4598">
        <ele>99.71182</ele>
        <time>2022-07-11T16:43:01.367Z</time>
      </trkpt>
      <trkpt lat="44.76583" lon="0.45996">
        <ele>99.277687</ele>
        <time>2022-07-11T16:43:07.875Z</time>
      </trkpt>
      <trkpt lat="44.76618" lon="0.46011">
        <ele>98.652998</ele>
        <time>2022-07-11T16:43:17.437Z</time>
      </trkpt>
      <trkpt lat="44.76666" lon="0.46018">
        <ele>97.810225</ele>
        <time>2022-07-11T16:43:31.647Z</time>
      </trkpt>
      <trkpt lat="44.76724" lon="0.4601">
        <ele>98.507936</ele>
        <time>2022-07-11T16:43:51.841Z</time>
      </trkpt>
      <trkpt lat="44.76744" lon="0.46006">
        <ele>98.871213</ele>
        <time>2022-07-11T16:43:59.354Z</time>
      </trkpt>
      <trkpt lat="44.76732" lon="0.45988">
        <ele>99.193304</ele>
        <time>2022-07-11T16:44:03.413Z</time>
      </trkpt>
      <trkpt lat="44.76744" lon="0.46006">
        <ele>99.515394</ele>
        <time>2022-07-11T16:44:08.197Z</time>
      </trkpt>
      <trkpt lat="44.7675" lon="0.46011">
        <ele>99.636556</ele>
        <time>2022-07-11T16:44:09.847Z</time>
      </trkpt>
      <trkpt lat="44.76758" lon="0.46031">
        <ele>99.926873</ele>
        <time>2022-07-11T16:44:14.082Z</time>
      </trkpt>
      <trkpt lat="44.76758" lon="0.46076">
        <ele>100.5082</ele>
        <time>2022-07-11T16:44:23.165Z</time>
      </trkpt>
      <trkpt lat="44.76752" lon="0.46094">
        <ele>100.759087</ele>
        <time>2022-07-11T16:44:27.505Z</time>
      </trkpt>
      <trkpt lat="44.7675" lon="0.46098">
        <ele>100.821712</ele>
        <time>2022-07-11T16:44:28.609Z</time>
      </trkpt>
      <trkpt lat="44.76711" lon="0.46179">
        <ele>103.712536</ele>
        <time>2022-07-11T16:44:50.715Z</time>
      </trkpt>
      <trkpt lat="44.76538" lon="0.4654">
        <ele>117.703271</ele>
        <time>2022-07-11T16:46:49.612Z</time>
      </trkpt>
      <trkpt lat="44.76476" lon="0.4667">
        <ele>120.705344</ele>
        <time>2022-07-11T16:47:25.610Z</time>
      </trkpt>
      <trkpt lat="44.76449" lon="0.46724">
        <ele>121.968531</ele>
        <time>2022-07-11T16:47:36.570Z</time>
      </trkpt>
      <trkpt lat="44.76428" lon="0.46817">
        <ele>120.567064</ele>
        <time>2022-07-11T16:47:48.381Z</time>
      </trkpt>
      <trkpt lat="44.76426" lon="0.46825">
        <ele>120.418881</ele>
        <time>2022-07-11T16:47:49.309Z</time>
      </trkpt>
      <trkpt lat="44.76531" lon="0.46879">
        <ele>117.611373</ele>
        <time>2022-07-11T16:48:04.994Z</time>
      </trkpt>
      <trkpt lat="44.76594" lon="0.46885">
        <ele>114.522679</ele>
        <time>2022-07-11T16:48:13.332Z</time>
      </trkpt>
      <trkpt lat="44.76627" lon="0.46894">
        <ele>112.900893</ele>
        <time>2022-07-11T16:48:17.695Z</time>
      </trkpt>
      <trkpt lat="44.76699" lon="0.46947">
        <ele>108.94105</ele>
        <time>2022-07-11T16:48:28.497Z</time>
      </trkpt>
      <trkpt lat="44.76731" lon="0.46973">
        <ele>108.110186</ele>
        <time>2022-07-11T16:48:33.661Z</time>
      </trkpt>
      <trkpt lat="44.7677" lon="0.47003">
        <ele>107.16004</ele>
        <time>2022-07-11T16:48:40.002Z</time>
      </trkpt>
      <trkpt lat="44.76781" lon="0.47002">
        <ele>106.917522</ele>
        <time>2022-07-11T16:48:41.561Z</time>
      </trkpt>
      <trkpt lat="44.77065" lon="0.47062">
        <ele>104.587298</ele>
        <time>2022-07-11T16:49:29.358Z</time>
      </trkpt>
      <trkpt lat="44.77092" lon="0.47575">
        <ele>110.238824</ele>
        <time>2022-07-11T16:51:43.816Z</time>
      </trkpt>
      <trkpt lat="44.77121" lon="0.47691">
        <ele>111.427088</ele>
        <time>2022-07-11T16:52:13.777Z</time>
      </trkpt>
      <trkpt lat="44.77153" lon="0.47763">
        <ele>112.254768</ele>
        <time>2022-07-11T16:52:34.874Z</time>
      </trkpt>
      <trkpt lat="44.77199" lon="0.4797">
        <ele>113.192116</ele>
        <time>2022-07-11T16:53:27.990Z</time>
      </trkpt>
      <trkpt lat="44.77257" lon="0.48136">
        <ele>111.328218</ele>
        <time>2022-07-11T16:54:03.200Z</time>
      </trkpt>
      <trkpt lat="44.77309" lon="0.48249">
        <ele>109.542403</ele>
        <time>2022-07-11T16:54:16.793Z</time>
      </trkpt>
      <trkpt lat="44.77348" lon="0.48244">
        <ele>109.395838</ele>
        <time>2022-07-11T16:54:22.553Z</time>
      </trkpt>
      <trkpt lat="44.77353" lon="0.48245">
        <ele>109.373916</ele>
        <time>2022-07-11T16:54:23.438Z</time>
      </trkpt>
      <trkpt lat="44.77418" lon="0.48261">
        <ele>109.129796</ele>
        <time>2022-07-11T16:54:34.302Z</time>
      </trkpt>
      <trkpt lat="44.77458" lon="0.4826">
        <ele>108.979427</ele>
        <time>2022-07-11T16:54:43.855Z</time>
      </trkpt>
      <trkpt lat="44.77483" lon="0.48248">
        <ele>109.503893</ele>
        <time>2022-07-11T16:54:51.896Z</time>
      </trkpt>
      <trkpt lat="44.77533" lon="0.48225">
        <ele>112.658811</ele>
        <time>2022-07-11T16:55:12.326Z</time>
      </trkpt>
      <trkpt lat="44.77742" lon="0.48107">
        <ele>127.558434</ele>
        <time>2022-07-11T16:56:59.371Z</time>
      </trkpt>
      <trkpt lat="44.77773" lon="0.48102">
        <ele>129.912747</ele>
        <time>2022-07-11T16:57:15.457Z</time>
      </trkpt>
      <trkpt lat="44.7783" lon="0.48122">
        <ele>133.78664</ele>
        <time>2022-07-11T16:57:44.500Z</time>
      </trkpt>
      <trkpt lat="44.77859" lon="0.48117">
        <ele>135.24922</ele>
        <time>2022-07-11T16:57:57.542Z</time>
      </trkpt>
      <trkpt lat="44.77944" lon="0.48079">
        <ele>139.737836</ele>
        <time>2022-07-11T16:58:32.938Z</time>
      </trkpt>
      <trkpt lat="44.78022" lon="0.48229">
        <ele>142.267683</ele>
        <time>2022-07-11T16:59:08.683Z</time>
      </trkpt>
      <trkpt lat="44.78027" lon="0.483">
        <ele>142.468765</ele>
        <time>2022-07-11T16:59:16.860Z</time>
      </trkpt>
      <trkpt lat="44.78076" lon="0.484">
        <ele>142.629686</ele>
        <time>2022-07-11T16:59:30.330Z</time>
      </trkpt>
      <trkpt lat="44.78137" lon="0.48486">
        <ele>142.634846</ele>
        <time>2022-07-11T16:59:44.829Z</time>
      </trkpt>
      <trkpt lat="44.783" lon="0.48632">
        <ele>147.70283</ele>
        <time>2022-07-11T17:00:42.904Z</time>
      </trkpt>
      <trkpt lat="44.78322" lon="0.4864">
        <ele>148.505346</ele>
        <time>2022-07-11T17:00:52.813Z</time>
      </trkpt>
      <trkpt lat="44.78404" lon="0.48642">
        <ele>152.557203</ele>
        <time>2022-07-11T17:01:27.278Z</time>
      </trkpt>
      <trkpt lat="44.78425" lon="0.4864">
        <ele>153.619613</ele>
        <time>2022-07-11T17:01:36.244Z</time>
      </trkpt>
      <trkpt lat="44.78449" lon="0.48642">
        <ele>154.887877</ele>
        <time>2022-07-11T17:01:46.404Z</time>
      </trkpt>
      <trkpt lat="44.78507" lon="0.48656">
        <ele>157.891898</ele>
        <time>2022-07-11T17:02:08.751Z</time>
      </trkpt>
      <trkpt lat="44.78573" lon="0.48683">
        <ele>159.560881</ele>
        <time>2022-07-11T17:02:30.435Z</time>
      </trkpt>
      <trkpt lat="44.7869" lon="0.48732">
        <ele>162.147902</ele>
        <time>2022-07-11T17:02:59.823Z</time>
      </trkpt>
      <trkpt lat="44.78857" lon="0.48822">
        <ele>163.680087</ele>
        <time>2022-07-11T17:03:38.517Z</time>
      </trkpt>
      <trkpt lat="44.79013" lon="0.48908">
        <ele>164.741848</ele>
        <time>2022-07-11T17:04:14.466Z</time>
      </trkpt>
      <trkpt lat="44.79044" lon="0.4893">
        <ele>164.791945</ele>
        <time>2022-07-11T17:04:21.251Z</time>
      </trkpt>
      <trkpt lat="44.79093" lon="0.48977">
        <ele>164.79327</ele>
        <time>2022-07-11T17:04:32.108Z</time>
      </trkpt>
      <trkpt lat="44.7924" lon="0.49119">
        <ele>165.048937</ele>
        <time>2022-07-11T17:05:04.518Z</time>
      </trkpt>
      <trkpt lat="44.79282" lon="0.49144">
        <ele>165.183467</ele>
        <time>2022-07-11T17:05:12.678Z</time>
      </trkpt>
      <trkpt lat="44.79292" lon="0.49196">
        <ele>165.298036</ele>
        <time>2022-07-11T17:05:21.169Z</time>
      </trkpt>
      <trkpt lat="44.79317" lon="0.49191">
        <ele>165.518423</ele>
        <time>2022-07-11T17:05:27.771Z</time>
      </trkpt>
      <trkpt lat="44.79292" lon="0.49196">
        <ele>165.846902</ele>
        <time>2022-07-11T17:05:34.340Z</time>
      </trkpt>
      <trkpt lat="44.79282" lon="0.49144">
        <ele>166.32824</ele>
        <time>2022-07-11T17:05:44.665Z</time>
      </trkpt>
      <trkpt lat="44.79356" lon="0.49163">
        <ele>167.269545</ele>
        <time>2022-07-11T17:06:04.867Z</time>
      </trkpt>
      <trkpt lat="44.79362" lon="0.49154">
        <ele>167.382813</ele>
        <time>2022-07-11T17:06:06.743Z</time>
      </trkpt>
      <trkpt lat="44.79378" lon="0.49149">
        <ele>167.557846</ele>
        <time>2022-07-11T17:06:09.622Z</time>
      </trkpt>
      <trkpt lat="44.79384" lon="0.49149">
        <ele>167.376741</ele>
        <time>2022-07-11T17:06:10.485Z</time>
      </trkpt>
      <trkpt lat="44.794" lon="0.49162">
        <ele>166.745774</ele>
        <time>2022-07-11T17:06:13.555Z</time>
      </trkpt>
      <trkpt lat="44.79438" lon="0.49211">
        <ele>165.074243</ele>
        <time>2022-07-11T17:06:21.012Z</time>
      </trkpt>
      <trkpt lat="44.79482" lon="0.49234">
        <ele>163.521321</ele>
        <time>2022-07-11T17:06:27.274Z</time>
      </trkpt>
      <trkpt lat="44.79524" lon="0.49238">
        <ele>162.150604</ele>
        <time>2022-07-11T17:06:32.499Z</time>
      </trkpt>
      <trkpt lat="44.79588" lon="0.4921">
        <ele>158.042528</ele>
        <time>2022-07-11T17:06:40.736Z</time>
      </trkpt>
      <trkpt lat="44.79664" lon="0.49227">
        <ele>152.799195</ele>
        <time>2022-07-11T17:06:49.774Z</time>
      </trkpt>
      <trkpt lat="44.79698" lon="0.49229">
        <ele>150.459903</ele>
        <time>2022-07-11T17:06:53.893Z</time>
      </trkpt>
      <trkpt lat="44.79746" lon="0.49204">
        <ele>146.156633</ele>
        <time>2022-07-11T17:07:00.310Z</time>
      </trkpt>
      <trkpt lat="44.79781" lon="0.49195">
        <ele>142.994599</ele>
        <time>2022-07-11T17:07:04.400Z</time>
      </trkpt>
      <trkpt lat="44.79812" lon="0.49208">
        <ele>140.136674</ele>
        <time>2022-07-11T17:07:08.063Z</time>
      </trkpt>
      <trkpt lat="44.79866" lon="0.49278">
        <ele>133.560092</ele>
        <time>2022-07-11T17:07:16.352Z</time>
      </trkpt>
      <trkpt lat="44.7989" lon="0.49301">
        <ele>130.514633</ele>
        <time>2022-07-11T17:07:19.630Z</time>
      </trkpt>
      <trkpt lat="44.79909" lon="0.49304">
        <ele>128.501778</ele>
        <time>2022-07-11T17:07:21.729Z</time>
      </trkpt>
      <trkpt lat="44.79927" lon="0.49298">
        <ele>126.523007</ele>
        <time>2022-07-11T17:07:23.850Z</time>
      </trkpt>
      <trkpt lat="44.79978" lon="0.49274">
        <ele>120.806881</ele>
        <time>2022-07-11T17:07:29.823Z</time>
      </trkpt>
      <trkpt lat="44.80109" lon="0.49213">
        <ele>107.799818</ele>
        <time>2022-07-11T17:07:45.639Z</time>
      </trkpt>
      <trkpt lat="44.80226" lon="0.49192">
        <ele>97.942691</ele>
        <time>2022-07-11T17:07:59.529Z</time>
      </trkpt>
      <trkpt lat="44.80256" lon="0.49189">
        <ele>95.423852</ele>
        <time>2022-07-11T17:08:03.137Z</time>
      </trkpt>
      <trkpt lat="44.80487" lon="0.49214">
        <ele>76.933675</ele>
        <time>2022-07-11T17:08:30.079Z</time>
      </trkpt>
      <trkpt lat="44.80546" lon="0.49223">
        <ele>72.370141</ele>
        <time>2022-07-11T17:08:37.181Z</time>
      </trkpt>
      <trkpt lat="44.80591" lon="0.49222">
        <ele>69.483613</ele>
        <time>2022-07-11T17:08:42.606Z</time>
      </trkpt>
      <trkpt lat="44.80654" lon="0.49201">
        <ele>66.292779</ele>
        <time>2022-07-11T17:08:50.748Z</time>
      </trkpt>
      <trkpt lat="44.80722" lon="0.49201">
        <ele>63.002163</ele>
        <time>2022-07-11T17:08:59.573Z</time>
      </trkpt>
      <trkpt lat="44.80822" lon="0.49224">
        <ele>59.582553</ele>
        <time>2022-07-11T17:09:13.417Z</time>
      </trkpt>
      <trkpt lat="44.80926" lon="0.49264">
        <ele>56.560769</ele>
        <time>2022-07-11T17:09:28.676Z</time>
      </trkpt>
      <trkpt lat="44.80961" lon="0.49271">
        <ele>55.947443</ele>
        <time>2022-07-11T17:09:33.844Z</time>
      </trkpt>
      <trkpt lat="44.80976" lon="0.49273">
        <ele>55.677054</ele>
        <time>2022-07-11T17:09:36.160Z</time>
      </trkpt>
      <trkpt lat="44.81083" lon="0.49278">
        <ele>53.82939</ele>
        <time>2022-07-11T17:09:52.147Z</time>
      </trkpt>
      <trkpt lat="44.81293" lon="0.49229">
        <ele>51.05714</ele>
        <time>2022-07-11T17:10:25.111Z</time>
      </trkpt>
      <trkpt lat="44.81457" lon="0.49213">
        <ele>49.716416</ele>
        <time>2022-07-11T17:10:51.929Z</time>
      </trkpt>
      <trkpt lat="44.81604" lon="0.49196">
        <ele>48.733467</ele>
        <time>2022-07-11T17:11:16.260Z</time>
      </trkpt>
      <trkpt lat="44.81807" lon="0.49205">
        <ele>47.537646</ele>
        <time>2022-07-11T17:11:50.021Z</time>
      </trkpt>
      <trkpt lat="44.81834" lon="0.492">
        <ele>47.399753</ele>
        <time>2022-07-11T17:11:54.469Z</time>
      </trkpt>
      <trkpt lat="44.8194" lon="0.49135">
        <ele>46.864595</ele>
        <time>2022-07-11T17:12:13.771Z</time>
      </trkpt>
      <trkpt lat="44.82186" lon="0.49026">
        <ele>45.975641</ele>
        <time>2022-07-11T17:12:57.787Z</time>
      </trkpt>
      <trkpt lat="44.82206" lon="0.49004">
        <ele>45.929946</ele>
        <time>2022-07-11T17:13:02.189Z</time>
      </trkpt>
      <trkpt lat="44.82232" lon="0.48955">
        <ele>45.850922</ele>
        <time>2022-07-11T17:13:09.817Z</time>
      </trkpt>
      <trkpt lat="44.82267" lon="0.48901">
        <ele>45.757575</ele>
        <time>2022-07-11T17:13:18.754Z</time>
      </trkpt>
      <trkpt lat="44.82293" lon="0.48879">
        <ele>45.702147</ele>
        <time>2022-07-11T17:13:24.110Z</time>
      </trkpt>
      <trkpt lat="44.82319" lon="0.48864">
        <ele>45.692297</ele>
        <time>2022-07-11T17:13:28.963Z</time>
      </trkpt>
      <trkpt lat="44.82379" lon="0.48844">
        <ele>45.673116</ele>
        <time>2022-07-11T17:13:39.858Z</time>
      </trkpt>
      <trkpt lat="44.82577" lon="0.48782">
        <ele>45.678599</ele>
        <time>2022-07-11T17:14:16.511Z</time>
      </trkpt>
      <trkpt lat="44.8261" lon="0.48781">
        <ele>45.688421</ele>
        <time>2022-07-11T17:14:22.514Z</time>
      </trkpt>
      <trkpt lat="44.82611" lon="0.48782">
        <ele>45.688803</ele>
        <time>2022-07-11T17:14:22.744Z</time>
      </trkpt>
      <trkpt lat="44.82622" lon="0.48787">
        <ele>45.692374</ele>
        <time>2022-07-11T17:14:24.888Z</time>
      </trkpt>
      <trkpt lat="44.82633" lon="0.48784">
        <ele>45.695936</ele>
        <time>2022-07-11T17:14:27.033Z</time>
      </trkpt>
      <trkpt lat="44.82641" lon="0.48772">
        <ele>45.688557</ele>
        <time>2022-07-11T17:14:29.076Z</time>
      </trkpt>
      <trkpt lat="44.8267" lon="0.48755">
        <ele>45.336282</ele>
        <time>2022-07-11T17:14:34.419Z</time>
      </trkpt>
      <trkpt lat="44.82728" lon="0.4874">
        <ele>44.660493</ele>
        <time>2022-07-11T17:14:44.129Z</time>
      </trkpt>
      <trkpt lat="44.82785" lon="0.48747">
        <ele>44.010462</ele>
        <time>2022-07-11T17:14:52.818Z</time>
      </trkpt>
      <trkpt lat="44.82845" lon="0.48748">
        <ele>42.921036</ele>
        <time>2022-07-11T17:15:01.508Z</time>
      </trkpt>
      <trkpt lat="44.82911" lon="0.48715">
        <ele>41.11868</ele>
        <time>2022-07-11T17:15:11.384Z</time>
      </trkpt>
      <trkpt lat="44.82978" lon="0.48701">
        <ele>39.377</ele>
        <time>2022-07-11T17:15:20.748Z</time>
      </trkpt>
      <trkpt lat="44.83222" lon="0.48683">
        <ele>34.465708</ele>
        <time>2022-07-11T17:15:55.877Z</time>
      </trkpt>
      <trkpt lat="44.8354" lon="0.48678">
        <ele>32.701574</ele>
        <time>2022-07-11T17:16:50.309Z</time>
      </trkpt>
      <trkpt lat="44.83569" lon="0.48662">
        <ele>32.626296</ele>
        <time>2022-07-11T17:16:55.660Z</time>
      </trkpt>
      <trkpt lat="44.83628" lon="0.48591">
        <ele>32.443662</ele>
        <time>2022-07-11T17:17:08.833Z</time>
      </trkpt>
      <trkpt lat="44.83654" lon="0.48559">
        <ele>32.362328</ele>
        <time>2022-07-11T17:17:14.771Z</time>
      </trkpt>
      <trkpt lat="44.83665" lon="0.48547">
        <ele>32.328239</ele>
        <time>2022-07-11T17:17:17.258Z</time>
      </trkpt>
      <trkpt lat="44.83673" lon="0.48538">
        <ele>32.305666</ele>
        <time>2022-07-11T17:17:18.918Z</time>
      </trkpt>
      <trkpt lat="44.83857" lon="0.48428">
        <ele>32.490146</ele>
        <time>2022-07-11T17:17:55.864Z</time>
      </trkpt>
      <trkpt lat="44.8397" lon="0.48364">
        <ele>32.314349</ele>
        <time>2022-07-11T17:18:17.174Z</time>
      </trkpt>
      <trkpt lat="44.83976" lon="0.48362">
        <ele>32.306081</ele>
        <time>2022-07-11T17:18:18.155Z</time>
      </trkpt>
      <trkpt lat="44.84009" lon="0.48349">
        <ele>32.255752</ele>
        <time>2022-07-11T17:18:24.003Z</time>
      </trkpt>
      <trkpt lat="44.84136" lon="0.48318">
        <ele>32.175598</ele>
        <time>2022-07-11T17:18:46.461Z</time>
      </trkpt>
      <trkpt lat="44.84188" lon="0.48319">
        <ele>32.14365</ele>
        <time>2022-07-11T17:18:56.172Z</time>
      </trkpt>
      <trkpt lat="44.84198" lon="0.48322">
        <ele>32.16795</ele>
        <time>2022-07-11T17:18:58.085Z</time>
      </trkpt>
      <trkpt lat="44.84247" lon="0.48327">
        <ele>32.288226</ele>
        <time>2022-07-11T17:19:07.459Z</time>
      </trkpt>
      <trkpt lat="44.84316" lon="0.4832">
        <ele>32.455584</ele>
        <time>2022-07-11T17:19:20.910Z</time>
      </trkpt>
      <trkpt lat="44.84444" lon="0.48316">
        <ele>32.594978</ele>
        <time>2022-07-11T17:19:43.710Z</time>
      </trkpt>
      <trkpt lat="44.84452" lon="0.48334">
        <ele>32.597401</ele>
        <time>2022-07-11T17:19:46.543Z</time>
      </trkpt>
      <trkpt lat="44.84466" lon="0.48318">
        <ele>32.60034</ele>
        <time>2022-07-11T17:19:49.599Z</time>
      </trkpt>
      <trkpt lat="44.84478" lon="0.48303">
        <ele>32.602958</ele>
        <time>2022-07-11T17:19:52.519Z</time>
      </trkpt>
      <trkpt lat="44.84565" lon="0.48258">
        <ele>32.37678</ele>
        <time>2022-07-11T17:20:09.480Z</time>
      </trkpt>
      <trkpt lat="44.84578" lon="0.48251">
        <ele>32.282624</ele>
        <time>2022-07-11T17:20:12.247Z</time>
      </trkpt>
      <trkpt lat="44.84635" lon="0.48223">
        <ele>31.902315</ele>
        <time>2022-07-11T17:20:21.805Z</time>
      </trkpt>
      <trkpt lat="44.84645" lon="0.48218">
        <ele>31.83586</ele>
        <time>2022-07-11T17:20:23.534Z</time>
      </trkpt>
      <trkpt lat="44.84679" lon="0.48199">
        <ele>31.603442</ele>
        <time>2022-07-11T17:20:29.340Z</time>
      </trkpt>
      <trkpt lat="44.84691" lon="0.48201">
        <ele>31.526373</ele>
        <time>2022-07-11T17:20:31.219Z</time>
      </trkpt>
      <trkpt lat="44.84698" lon="0.4821">
        <ele>31.457369</ele>
        <time>2022-07-11T17:20:32.744Z</time>
      </trkpt>
      <trkpt lat="44.84702" lon="0.48208">
        <ele>31.400798</ele>
        <time>2022-07-11T17:20:33.513Z</time>
      </trkpt>
      <trkpt lat="44.84708" lon="0.48219">
        <ele>31.282388</ele>
        <time>2022-07-11T17:20:34.992Z</time>
      </trkpt>
      <trkpt lat="44.84724" lon="0.48239">
        <ele>30.997966</ele>
        <time>2022-07-11T17:20:38.359Z</time>
      </trkpt>
      <trkpt lat="44.8475" lon="0.4827">
        <ele>30.553822</ele>
        <time>2022-07-11T17:20:43.683Z</time>
      </trkpt>
      <trkpt lat="44.84858" lon="0.48402">
        <ele>29.039426</ele>
        <time>2022-07-11T17:21:05.404Z</time>
      </trkpt>
      <trkpt lat="44.8486" lon="0.48404">
        <ele>29.03404</ele>
        <time>2022-07-11T17:21:05.765Z</time>
      </trkpt>
      <trkpt lat="44.8486" lon="0.48404">
        <ele>29.032857</ele>
        <time>2022-07-11T17:21:05.856Z</time>
      </trkpt>
      <trkpt lat="44.84871" lon="0.48389">
        <ele>28.993317</ele>
        <time>2022-07-11T17:21:08.537Z</time>
      </trkpt>
      <trkpt lat="44.84905" lon="0.48332">
        <ele>28.858929</ele>
        <time>2022-07-11T17:21:18.571Z</time>
      </trkpt>
      <trkpt lat="44.84871" lon="0.48389">
        <ele>28.72454</ele>
        <time>2022-07-11T17:21:28.193Z</time>
      </trkpt>
      <trkpt lat="44.8486" lon="0.48404">
        <ele>28.685</ele>
        <time>2022-07-11T17:21:31.449Z</time>
      </trkpt>
      <trkpt lat="44.8486" lon="0.48404">
        <ele>28.683817</ele>
        <time>2022-07-11T17:21:31.532Z</time>
      </trkpt>
      <trkpt lat="44.84858" lon="0.48402">
        <ele>28.678432</ele>
        <time>2022-07-11T17:21:31.957Z</time>
      </trkpt>
      <trkpt lat="44.8475" lon="0.4827">
        <ele>29.696096</ele>
        <time>2022-07-11T17:22:02.480Z</time>
      </trkpt>
      <trkpt lat="44.84724" lon="0.48239">
        <ele>29.949533</ele>
        <time>2022-07-11T17:22:09.522Z</time>
      </trkpt>
      <trkpt lat="44.84737" lon="0.48217">
        <ele>30.059673</ele>
        <time>2022-07-11T17:22:13.742Z</time>
      </trkpt>
      <trkpt lat="44.84744" lon="0.48203">
        <ele>30.111724</ele>
        <time>2022-07-11T17:22:16.358Z</time>
      </trkpt>
      <trkpt lat="44.84764" lon="0.48171">
        <ele>30.240325</ele>
        <time>2022-07-11T17:22:22.778Z</time>
      </trkpt>
      <trkpt lat="44.84775" lon="0.48158">
        <ele>30.303754</ele>
        <time>2022-07-11T17:22:25.994Z</time>
      </trkpt>
      <trkpt lat="44.84782" lon="0.48149">
        <ele>30.344267</ele>
        <time>2022-07-11T17:22:28.117Z</time>
      </trkpt>
      <trkpt lat="44.84814" lon="0.48098">
        <ele>30.547732</ele>
        <time>2022-07-11T17:22:38.403Z</time>
      </trkpt>
      <trkpt lat="44.8483" lon="0.48058">
        <ele>30.689454</ele>
        <time>2022-07-11T17:22:44.422Z</time>
      </trkpt>
      <trkpt lat="44.84849" lon="0.47989">
        <ele>30.741354</ele>
        <time>2022-07-11T17:22:53.568Z</time>
      </trkpt>
      <trkpt lat="44.8486" lon="0.47959">
        <ele>30.718909</ele>
        <time>2022-07-11T17:22:57.939Z</time>
      </trkpt>
      <trkpt lat="44.84872" lon="0.47925">
        <ele>30.693014</ele>
        <time>2022-07-11T17:23:02.978Z</time>
      </trkpt>
      <trkpt lat="44.84902" lon="0.47843">
        <ele>30.632003</ele>
        <time>2022-07-11T17:23:15.005Z</time>
      </trkpt>
      <trkpt lat="44.84906" lon="0.47796">
        <ele>30.607773</ele>
        <time>2022-07-11T17:23:21.220Z</time>
      </trkpt>
      <trkpt lat="44.84899" lon="0.4778">
        <ele>30.633378</ele>
        <time>2022-07-11T17:23:23.771Z</time>
      </trkpt>
      <trkpt lat="44.84897" lon="0.4775">
        <ele>30.671969</ele>
        <time>2022-07-11T17:23:27.626Z</time>
      </trkpt>
      <trkpt lat="44.84892" lon="0.47697">
        <ele>30.741761</ele>
        <time>2022-07-11T17:23:34.690Z</time>
      </trkpt>
      <trkpt lat="44.84884" lon="0.4764">
        <ele>30.818658</ele>
        <time>2022-07-11T17:23:43.217Z</time>
      </trkpt>
      <trkpt lat="44.84883" lon="0.47633">
        <ele>30.827219</ele>
        <time>2022-07-11T17:23:44.180Z</time>
      </trkpt>
      <trkpt lat="44.84867" lon="0.47589">
        <ele>30.891486</ele>
        <time>2022-07-11T17:23:51.621Z</time>
      </trkpt>
      <trkpt lat="44.84844" lon="0.47548">
        <ele>30.862058</ele>
        <time>2022-07-11T17:23:58.521Z</time>
      </trkpt>
      <trkpt lat="44.84812" lon="0.47466">
        <ele>30.520552</ele>
        <time>2022-07-11T17:24:09.559Z</time>
      </trkpt>
      <trkpt lat="44.84794" lon="0.47421">
        <ele>30.328799</ele>
        <time>2022-07-11T17:24:15.590Z</time>
      </trkpt>
      <trkpt lat="44.84776" lon="0.47379">
        <ele>30.151017</ele>
        <time>2022-07-11T17:24:21.185Z</time>
      </trkpt>
      <trkpt lat="44.84761" lon="0.47337">
        <ele>29.99125</ele>
        <time>2022-07-11T17:24:26.635Z</time>
      </trkpt>
      <trkpt lat="44.84739" lon="0.47286">
        <ele>29.882266</ele>
        <time>2022-07-11T17:24:33.459Z</time>
      </trkpt>
      <trkpt lat="44.84724" lon="0.47248">
        <ele>29.802069</ele>
        <time>2022-07-11T17:24:38.502Z</time>
      </trkpt>
      <trkpt lat="44.84715" lon="0.47225">
        <ele>29.754456</ele>
        <time>2022-07-11T17:24:41.533Z</time>
      </trkpt>
      <trkpt lat="44.84687" lon="0.47162">
        <ele>29.617386</ele>
        <time>2022-07-11T17:24:50.656Z</time>
      </trkpt>
      <trkpt lat="44.8461" lon="0.47201">
        <ele>30.066137</ele>
        <time>2022-07-11T17:25:08.308Z</time>
      </trkpt>
      <trkpt lat="44.84595" lon="0.47175">
        <ele>30.31186</ele>
        <time>2022-07-11T17:25:13.931Z</time>
      </trkpt>
      <trkpt lat="44.84562" lon="0.47142">
        <ele>30.731807</ele>
        <time>2022-07-11T17:25:23.792Z</time>
      </trkpt>
      <trkpt lat="44.84543" lon="0.47123">
        <ele>30.979809</ele>
        <time>2022-07-11T17:25:29.761Z</time>
      </trkpt>
      <trkpt lat="44.84516" lon="0.471">
        <ele>31.302279</ele>
        <time>2022-07-11T17:25:37.232Z</time>
      </trkpt>
      <trkpt lat="44.84483" lon="0.47078">
        <ele>31.476997</ele>
        <time>2022-07-11T17:25:44.970Z</time>
      </trkpt>
      <trkpt lat="44.84426" lon="0.47041">
        <ele>31.660159</ele>
        <time>2022-07-11T17:25:57.209Z</time>
      </trkpt>
      <trkpt lat="44.84418" lon="0.47036">
        <ele>31.686178</ele>
        <time>2022-07-11T17:25:58.894Z</time>
      </trkpt>
      <trkpt lat="44.84408" lon="0.47031">
        <ele>31.718859</ele>
        <time>2022-07-11T17:26:00.986Z</time>
      </trkpt>
      <trkpt lat="44.84391" lon="0.47021">
        <ele>31.77256</ele>
        <time>2022-07-11T17:26:04.436Z</time>
      </trkpt>
      <trkpt lat="44.84373" lon="0.46979">
        <ele>31.873964</ele>
        <time>2022-07-11T17:26:10.517Z</time>
      </trkpt>
      <trkpt lat="44.84359" lon="0.46947">
        <ele>31.903878</ele>
        <time>2022-07-11T17:26:15.284Z</time>
      </trkpt>
      <trkpt lat="44.8433" lon="0.46883">
        <ele>31.792798</ele>
        <time>2022-07-11T17:26:25.407Z</time>
      </trkpt>
      <trkpt lat="44.84295" lon="0.46806">
        <ele>31.66054</ele>
        <time>2022-07-11T17:26:36.366Z</time>
      </trkpt>
      <trkpt lat="44.84259" lon="0.46724">
        <ele>31.429702</ele>
        <time>2022-07-11T17:26:47.942Z</time>
      </trkpt>
      <trkpt lat="44.84254" lon="0.46711">
        <ele>31.353191</ele>
        <time>2022-07-11T17:26:49.684Z</time>
      </trkpt>
      <trkpt lat="44.84241" lon="0.46681">
        <ele>31.168446</ele>
        <time>2022-07-11T17:26:53.801Z</time>
      </trkpt>
      <trkpt lat="44.84222" lon="0.4664">
        <ele>30.911882</ele>
        <time>2022-07-11T17:26:59.476Z</time>
      </trkpt>
      <trkpt lat="44.84203" lon="0.46595">
        <ele>30.633872</ele>
        <time>2022-07-11T17:27:05.629Z</time>
      </trkpt>
      <trkpt lat="44.8417" lon="0.46521">
        <ele>30.190956</ele>
        <time>2022-07-11T17:27:15.493Z</time>
      </trkpt>
      <trkpt lat="44.84161" lon="0.46505">
        <ele>30.121608</ele>
        <time>2022-07-11T17:27:17.762Z</time>
      </trkpt>
      <trkpt lat="44.84152" lon="0.46495">
        <ele>30.070488</ele>
        <time>2022-07-11T17:27:19.463Z</time>
      </trkpt>
      <trkpt lat="44.84154" lon="0.4648">
        <ele>30.018613</ele>
        <time>2022-07-11T17:27:21.156Z</time>
      </trkpt>
      <trkpt lat="44.84149" lon="0.46474">
        <ele>29.990072</ele>
        <time>2022-07-11T17:27:22.100Z</time>
      </trkpt>
      <trkpt lat="44.84144" lon="0.46472">
        <ele>29.961339</ele>
        <time>2022-07-11T17:27:23.033Z</time>
      </trkpt>
      <trkpt lat="44.84141" lon="0.46454">
        <ele>29.899019</ele>
        <time>2022-07-11T17:27:25.143Z</time>
      </trkpt>
      <trkpt lat="44.84128" lon="0.46425">
        <ele>29.785701</ele>
        <time>2022-07-11T17:27:28.950Z</time>
      </trkpt>
      <trkpt lat="44.84123" lon="0.46413">
        <ele>29.73757</ele>
        <time>2022-07-11T17:27:30.664Z</time>
      </trkpt>
      <trkpt lat="44.84083" lon="0.46323">
        <ele>29.379418</ele>
        <time>2022-07-11T17:27:44.264Z</time>
      </trkpt>
      <trkpt lat="44.8407" lon="0.46294">
        <ele>29.428866</ele>
        <time>2022-07-11T17:27:48.885Z</time>
      </trkpt>
      <trkpt lat="44.8404" lon="0.46227">
        <ele>29.594495</ele>
        <time>2022-07-11T17:27:59.945Z</time>
      </trkpt>
      <trkpt lat="44.84037" lon="0.4622">
        <ele>29.610919</ele>
        <time>2022-07-11T17:28:01.015Z</time>
      </trkpt>
      <trkpt lat="44.84031" lon="0.46205">
        <ele>29.647841</ele>
        <time>2022-07-11T17:28:03.358Z</time>
      </trkpt>
      <trkpt lat="44.84021" lon="0.46184">
        <ele>29.699336</ele>
        <time>2022-07-11T17:28:06.602Z</time>
      </trkpt>
      <trkpt lat="44.84017" lon="0.46174">
        <ele>29.722366</ele>
        <time>2022-07-11T17:28:08.078Z</time>
      </trkpt>
      <trkpt lat="44.83996" lon="0.46127">
        <ele>29.83925</ele>
        <time>2022-07-11T17:28:15.475Z</time>
      </trkpt>
      <trkpt lat="44.83978" lon="0.46086">
        <ele>29.943802</ele>
        <time>2022-07-11T17:28:22.059Z</time>
      </trkpt>
      <trkpt lat="44.83977" lon="0.46083">
        <ele>29.949948</ele>
        <time>2022-07-11T17:28:22.431Z</time>
      </trkpt>
      <trkpt lat="44.83934" lon="0.45986">
        <ele>30.209505</ele>
        <time>2022-07-11T17:28:38.260Z</time>
      </trkpt>
      <trkpt lat="44.83858" lon="0.45812">
        <ele>30.614954</ele>
        <time>2022-07-11T17:29:05.587Z</time>
      </trkpt>
      <trkpt lat="44.83819" lon="0.45724">
        <ele>30.780397</ele>
        <time>2022-07-11T17:29:19.658Z</time>
      </trkpt>
      <trkpt lat="44.83811" lon="0.45707">
        <ele>30.812559</ele>
        <time>2022-07-11T17:29:22.204Z</time>
      </trkpt>
      <trkpt lat="44.83802" lon="0.45686">
        <ele>30.851099</ele>
        <time>2022-07-11T17:29:25.433Z</time>
      </trkpt>
      <trkpt lat="44.838" lon="0.4568">
        <ele>30.862824</ele>
        <time>2022-07-11T17:29:26.372Z</time>
      </trkpt>
      <trkpt lat="44.83797" lon="0.45674">
        <ele>30.874024</ele>
        <time>2022-07-11T17:29:27.238Z</time>
      </trkpt>
      <trkpt lat="44.83773" lon="0.45622">
        <ele>30.897694</ele>
        <time>2022-07-11T17:29:35.072Z</time>
      </trkpt>
      <trkpt lat="44.83778" lon="0.45607">
        <ele>30.903601</ele>
        <time>2022-07-11T17:29:37.150Z</time>
      </trkpt>
      <trkpt lat="44.83774" lon="0.45596">
        <ele>30.908444</ele>
        <time>2022-07-11T17:29:38.871Z</time>
      </trkpt>
      <trkpt lat="44.83771" lon="0.45594">
        <ele>30.910009</ele>
        <time>2022-07-11T17:29:39.398Z</time>
      </trkpt>
      <trkpt lat="44.83762" lon="0.45595">
        <ele>30.914483</ele>
        <time>2022-07-11T17:29:40.899Z</time>
      </trkpt>
      <trkpt lat="44.83724" lon="0.45507">
        <ele>30.953183</ele>
        <time>2022-07-11T17:29:54.120Z</time>
      </trkpt>
      <trkpt lat="44.83697" lon="0.45445">
        <ele>30.968413</ele>
        <time>2022-07-11T17:30:03.369Z</time>
      </trkpt>
      <trkpt lat="44.83701" lon="0.45437">
        <ele>30.968223</ele>
        <time>2022-07-11T17:30:04.661Z</time>
      </trkpt>
      <trkpt lat="44.837" lon="0.45423">
        <ele>30.967946</ele>
        <time>2022-07-11T17:30:06.414Z</time>
      </trkpt>
      <trkpt lat="44.83691" lon="0.45417">
        <ele>30.967683</ele>
        <time>2022-07-11T17:30:08.053Z</time>
      </trkpt>
      <trkpt lat="44.83685" lon="0.45418">
        <ele>30.9675</ele>
        <time>2022-07-11T17:30:09.162Z</time>
      </trkpt>
      <trkpt lat="44.8364" lon="0.45317">
        <ele>30.965129</ele>
        <time>2022-07-11T17:30:24.334Z</time>
      </trkpt>
      <trkpt lat="44.83628" lon="0.4529">
        <ele>30.964511</ele>
        <time>2022-07-11T17:30:28.232Z</time>
      </trkpt>
      <trkpt lat="44.83602" lon="0.45229">
        <ele>30.926722</ele>
        <time>2022-07-11T17:30:37.381Z</time>
      </trkpt>
      <trkpt lat="44.83541" lon="0.45086">
        <ele>30.789198</ele>
        <time>2022-07-11T17:30:58.202Z</time>
      </trkpt>
      <trkpt lat="44.83544" lon="0.45078">
        <ele>30.781631</ele>
        <time>2022-07-11T17:30:59.396Z</time>
      </trkpt>
      <trkpt lat="44.83542" lon="0.45065">
        <ele>30.770502</ele>
        <time>2022-07-11T17:31:01.106Z</time>
      </trkpt>
      <trkpt lat="44.83529" lon="0.45062">
        <ele>30.755541</ele>
        <time>2022-07-11T17:31:03.226Z</time>
      </trkpt>
      <trkpt lat="44.83514" lon="0.4503">
        <ele>30.661653</ele>
        <time>2022-07-11T17:31:07.781Z</time>
      </trkpt>
      <trkpt lat="44.83483" lon="0.4496">
        <ele>30.451557</ele>
        <time>2022-07-11T17:31:17.730Z</time>
      </trkpt>
      <trkpt lat="44.83464" lon="0.44906">
        <ele>30.300852</ele>
        <time>2022-07-11T17:31:24.963Z</time>
      </trkpt>
      <trkpt lat="44.83462" lon="0.44884">
        <ele>30.244695</ele>
        <time>2022-07-11T17:31:27.575Z</time>
      </trkpt>
      <trkpt lat="44.83465" lon="0.44876">
        <ele>30.221929</ele>
        <time>2022-07-11T17:31:28.694Z</time>
      </trkpt>
      <trkpt lat="44.83463" lon="0.44845">
        <ele>30.143438</ele>
        <time>2022-07-11T17:31:32.439Z</time>
      </trkpt>
      <trkpt lat="44.83457" lon="0.44835">
        <ele>30.117449</ele>
        <time>2022-07-11T17:31:33.968Z</time>
      </trkpt>
      <trkpt lat="44.83441" lon="0.44826">
        <ele>30.133651</ele>
        <time>2022-07-11T17:31:37.008Z</time>
      </trkpt>
      <trkpt lat="44.83421" lon="0.44813">
        <ele>30.153699</ele>
        <time>2022-07-11T17:31:40.748Z</time>
      </trkpt>
      <trkpt lat="44.83392" lon="0.44756">
        <ele>30.199659</ele>
        <time>2022-07-11T17:31:49.374Z</time>
      </trkpt>
      <trkpt lat="44.83375" lon="0.44692">
        <ele>30.244762</ele>
        <time>2022-07-11T17:31:58.125Z</time>
      </trkpt>
      <trkpt lat="44.83365" lon="0.44608">
        <ele>30.386868</ele>
        <time>2022-07-11T17:32:10.842Z</time>
      </trkpt>
      <trkpt lat="44.83298" lon="0.44616">
        <ele>30.752316</ele>
        <time>2022-07-11T17:32:25.248Z</time>
      </trkpt>
      <trkpt lat="44.83271" lon="0.44529">
        <ele>31.114639</ele>
        <time>2022-07-11T17:32:38.829Z</time>
      </trkpt>
      <trkpt lat="44.8327" lon="0.44525">
        <ele>31.133579</ele>
        <time>2022-07-11T17:32:39.473Z</time>
      </trkpt>
      <trkpt lat="44.83268" lon="0.44517">
        <ele>31.163711</ele>
        <time>2022-07-11T17:32:40.572Z</time>
      </trkpt>
      <trkpt lat="44.83265" lon="0.44507">
        <ele>31.20772</ele>
        <time>2022-07-11T17:32:42.184Z</time>
      </trkpt>
      <trkpt lat="44.83258" lon="0.44461">
        <ele>31.364911</ele>
        <time>2022-07-11T17:32:48.611Z</time>
      </trkpt>
      <trkpt lat="44.83256" lon="0.44422">
        <ele>31.494547</ele>
        <time>2022-07-11T17:32:54.360Z</time>
      </trkpt>
      <trkpt lat="44.83255" lon="0.44388">
        <ele>31.604013</ele>
        <time>2022-07-11T17:32:59.457Z</time>
      </trkpt>
      <trkpt lat="44.8325" lon="0.44357">
        <ele>31.705437</ele>
        <time>2022-07-11T17:33:04.152Z</time>
      </trkpt>
      <trkpt lat="44.83239" lon="0.44333">
        <ele>31.798927</ele>
        <time>2022-07-11T17:33:08.457Z</time>
      </trkpt>
      <trkpt lat="44.832" lon="0.44305">
        <ele>31.999825</ele>
        <time>2022-07-11T17:33:17.239Z</time>
      </trkpt>
      <trkpt lat="44.83186" lon="0.44294">
        <ele>32.073741</ele>
        <time>2022-07-11T17:33:20.471Z</time>
      </trkpt>
      <trkpt lat="44.8316" lon="0.44276">
        <ele>32.133319</ele>
        <time>2022-07-11T17:33:26.232Z</time>
      </trkpt>
      <trkpt lat="44.83151" lon="0.44269">
        <ele>32.15524</ele>
        <time>2022-07-11T17:33:28.358Z</time>
      </trkpt>
      <trkpt lat="44.83137" lon="0.44259">
        <ele>32.187318</ele>
        <time>2022-07-11T17:33:31.496Z</time>
      </trkpt>
      <trkpt lat="44.83129" lon="0.44253">
        <ele>32.204825</ele>
        <time>2022-07-11T17:33:33.196Z</time>
      </trkpt>
      <trkpt lat="44.831" lon="0.44232">
        <ele>32.271982</ele>
        <time>2022-07-11T17:33:39.673Z</time>
      </trkpt>
      <trkpt lat="44.83089" lon="0.44224">
        <ele>32.296956</ele>
        <time>2022-07-11T17:33:41.999Z</time>
      </trkpt>
      <trkpt lat="44.83062" lon="0.44205">
        <ele>32.357501</ele>
        <time>2022-07-11T17:33:47.832Z</time>
      </trkpt>
      <trkpt lat="44.83036" lon="0.44186">
        <ele>32.417373</ele>
        <time>2022-07-11T17:33:53.608Z</time>
      </trkpt>
      <trkpt lat="44.8302" lon="0.44175">
        <ele>32.4262</ele>
        <time>2022-07-11T17:33:56.761Z</time>
      </trkpt>
      <trkpt lat="44.83007" lon="0.44166">
        <ele>32.381252</ele>
        <time>2022-07-11T17:33:59.659Z</time>
      </trkpt>
      <trkpt lat="44.82968" lon="0.44138">
        <ele>32.255559</ele>
        <time>2022-07-11T17:34:07.344Z</time>
      </trkpt>
      <trkpt lat="44.82957" lon="0.4413">
        <ele>32.21967</ele>
        <time>2022-07-11T17:34:09.478Z</time>
      </trkpt>
      <trkpt lat="44.82906" lon="0.44094">
        <ele>32.054773</ele>
        <time>2022-07-11T17:34:19.390Z</time>
      </trkpt>
      <trkpt lat="44.82867" lon="0.44067">
        <ele>31.931252</ele>
        <time>2022-07-11T17:34:26.894Z</time>
      </trkpt>
      <trkpt lat="44.82855" lon="0.44055">
        <ele>31.98159</ele>
        <time>2022-07-11T17:34:29.470Z</time>
      </trkpt>
      <trkpt lat="44.82731" lon="0.43939">
        <ele>32.745583</ele>
        <time>2022-07-11T17:34:59.513Z</time>
      </trkpt>
      <trkpt lat="44.82615" lon="0.43928">
        <ele>34.378607</ele>
        <time>2022-07-11T17:35:29.325Z</time>
      </trkpt>
      <trkpt lat="44.82581" lon="0.4392">
        <ele>34.925026</ele>
        <time>2022-07-11T17:35:38.322Z</time>
      </trkpt>
      <trkpt lat="44.82548" lon="0.43903">
        <ele>35.476927</ele>
        <time>2022-07-11T17:35:47.282Z</time>
      </trkpt>
      <trkpt lat="44.82447" lon="0.43835">
        <ele>36.83243</ele>
        <time>2022-07-11T17:36:13.593Z</time>
      </trkpt>
      <trkpt lat="44.82427" lon="0.43832">
        <ele>37.072173</ele>
        <time>2022-07-11T17:36:18.468Z</time>
      </trkpt>
      <trkpt lat="44.82376" lon="0.43824">
        <ele>37.665732</ele>
        <time>2022-07-11T17:36:29.714Z</time>
      </trkpt>
      <trkpt lat="44.82349" lon="0.43789">
        <ele>38.046826</ele>
        <time>2022-07-11T17:36:37.511Z</time>
      </trkpt>
      <trkpt lat="44.8229" lon="0.4369">
        <ele>38.968434</ele>
        <time>2022-07-11T17:36:57.698Z</time>
      </trkpt>
      <trkpt lat="44.82262" lon="0.43658">
        <ele>39.329752</ele>
        <time>2022-07-11T17:37:06.173Z</time>
      </trkpt>
      <trkpt lat="44.82257" lon="0.43655">
        <ele>39.380976</ele>
        <time>2022-07-11T17:37:07.373Z</time>
      </trkpt>
      <trkpt lat="44.82247" lon="0.43651">
        <ele>39.48751</ele>
        <time>2022-07-11T17:37:09.879Z</time>
      </trkpt>
      <trkpt lat="44.82231" lon="0.4365">
        <ele>39.638966</ele>
        <time>2022-07-11T17:37:13.896Z</time>
      </trkpt>
      <trkpt lat="44.8222" lon="0.4365">
        <ele>39.735845</ele>
        <time>2022-07-11T17:37:16.607Z</time>
      </trkpt>
      <trkpt lat="44.82193" lon="0.43648">
        <ele>39.970259</ele>
        <time>2022-07-11T17:37:23.115Z</time>
      </trkpt>
      <trkpt lat="44.82184" lon="0.43647">
        <ele>40.047324</ele>
        <time>2022-07-11T17:37:25.179Z</time>
      </trkpt>
      <trkpt lat="44.82166" lon="0.43646">
        <ele>40.199492</ele>
        <time>2022-07-11T17:37:29.192Z</time>
      </trkpt>
      <trkpt lat="44.82152" lon="0.43645">
        <ele>40.320776</ele>
        <time>2022-07-11T17:37:32.290Z</time>
      </trkpt>
      <trkpt lat="44.82133" lon="0.43644">
        <ele>40.490258</ele>
        <time>2022-07-11T17:37:36.415Z</time>
      </trkpt>
      <trkpt lat="44.82092" lon="0.43639">
        <ele>40.842331</ele>
        <time>2022-07-11T17:37:44.904Z</time>
      </trkpt>
      <trkpt lat="44.82091" lon="0.43593">
        <ele>41.126897</ele>
        <time>2022-07-11T17:37:51.656Z</time>
      </trkpt>
      <trkpt lat="44.82091" lon="0.43577">
        <ele>41.156323</ele>
        <time>2022-07-11T17:37:53.855Z</time>
      </trkpt>
      <trkpt lat="44.82091" lon="0.43557">
        <ele>41.187202</ele>
        <time>2022-07-11T17:37:56.799Z</time>
      </trkpt>
      <trkpt lat="44.8209" lon="0.43531">
        <ele>41.22465</ele>
        <time>2022-07-11T17:38:00.375Z</time>
      </trkpt>
      <trkpt lat="44.8209" lon="0.43509">
        <ele>41.25763</ele>
        <time>2022-07-11T17:38:03.455Z</time>
      </trkpt>
      <trkpt lat="44.82088" lon="0.43467">
        <ele>41.319891</ele>
        <time>2022-07-11T17:38:09.207Z</time>
      </trkpt>
      <trkpt lat="44.82087" lon="0.43424">
        <ele>41.38405</ele>
        <time>2022-07-11T17:38:15.043Z</time>
      </trkpt>
      <trkpt lat="44.82081" lon="0.43348">
        <ele>41.497717</ele>
        <time>2022-07-11T17:38:25.293Z</time>
      </trkpt>
      <trkpt lat="44.82074" lon="0.43306">
        <ele>41.630961</ele>
        <time>2022-07-11T17:38:30.989Z</time>
      </trkpt>
      <trkpt lat="44.82057" lon="0.43222">
        <ele>41.937924</ele>
        <time>2022-07-11T17:38:42.672Z</time>
      </trkpt>
      <trkpt lat="44.82048" lon="0.43204">
        <ele>42.015867</ele>
        <time>2022-07-11T17:38:45.771Z</time>
      </trkpt>
      <trkpt lat="44.82003" lon="0.43192">
        <ele>42.244079</ele>
        <time>2022-07-11T17:38:55.287Z</time>
      </trkpt>
      <trkpt lat="44.81878" lon="0.43173">
        <ele>44.115823</ele>
        <time>2022-07-11T17:39:25.737Z</time>
      </trkpt>
      <trkpt lat="44.81822" lon="0.4316">
        <ele>45.14886</ele>
        <time>2022-07-11T17:39:41.049Z</time>
      </trkpt>
      <trkpt lat="44.81803" lon="0.43153">
        <ele>45.512729</ele>
        <time>2022-07-11T17:39:46.387Z</time>
      </trkpt>
      <trkpt lat="44.81675" lon="0.43066">
        <ele>49.28616</ele>
        <time>2022-07-11T17:40:29.464Z</time>
      </trkpt>
      <trkpt lat="44.81478" lon="0.43031">
        <ele>53.881089</ele>
        <time>2022-07-11T17:41:26.204Z</time>
      </trkpt>
      <trkpt lat="44.81479" lon="0.43015">
        <ele>54.1335</ele>
        <time>2022-07-11T17:41:28.854Z</time>
      </trkpt>
      <trkpt lat="44.81489" lon="0.42856">
        <ele>55.007477</ele>
        <time>2022-07-11T17:41:52.558Z</time>
      </trkpt>
      <trkpt lat="44.8149" lon="0.42709">
        <ele>55.45542</ele>
        <time>2022-07-11T17:42:10.923Z</time>
      </trkpt>
      <trkpt lat="44.81482" lon="0.42611">
        <ele>55.538692</ele>
        <time>2022-07-11T17:42:23.581Z</time>
      </trkpt>
      <trkpt lat="44.81482" lon="0.4261">
        <ele>55.539718</ele>
        <time>2022-07-11T17:42:23.747Z</time>
      </trkpt>
      <trkpt lat="44.81481" lon="0.42604">
        <ele>55.544682</ele>
        <time>2022-07-11T17:42:24.534Z</time>
      </trkpt>
      <trkpt lat="44.81477" lon="0.42533">
        <ele>55.605304</ele>
        <time>2022-07-11T17:42:34.191Z</time>
      </trkpt>
      <trkpt lat="44.81477" lon="0.42511">
        <ele>55.624165</ele>
        <time>2022-07-11T17:42:37.147Z</time>
      </trkpt>
      <trkpt lat="44.81477" lon="0.42497">
        <ele>55.636314</ele>
        <time>2022-07-11T17:42:39.085Z</time>
      </trkpt>
      <trkpt lat="44.81477" lon="0.42455">
        <ele>55.685257</ele>
        <time>2022-07-11T17:42:44.492Z</time>
      </trkpt>
      <trkpt lat="44.81477" lon="0.42441">
        <ele>55.70276</ele>
        <time>2022-07-11T17:42:46.188Z</time>
      </trkpt>
      <trkpt lat="44.81472" lon="0.4235">
        <ele>55.822747</ele>
        <time>2022-07-11T17:42:57.827Z</time>
      </trkpt>
      <trkpt lat="44.81467" lon="0.42271">
        <ele>55.925559</ele>
        <time>2022-07-11T17:43:08.184Z</time>
      </trkpt>
      <trkpt lat="44.81462" lon="0.4221">
        <ele>56.059273</ele>
        <time>2022-07-11T17:43:16.440Z</time>
      </trkpt>
      <trkpt lat="44.81437" lon="0.41868">
        <ele>56.857594</ele>
        <time>2022-07-11T17:44:05.362Z</time>
      </trkpt>
      <trkpt lat="44.8143" lon="0.41777">
        <ele>56.787861</ele>
        <time>2022-07-11T17:44:16.378Z</time>
      </trkpt>
      <trkpt lat="44.81426" lon="0.41697">
        <ele>56.612426</ele>
        <time>2022-07-11T17:44:25.568Z</time>
      </trkpt>
      <trkpt lat="44.81428" lon="0.41572">
        <ele>56.035609</ele>
        <time>2022-07-11T17:44:39.848Z</time>
      </trkpt>
      <trkpt lat="44.81416" lon="0.41472">
        <ele>55.593115</ele>
        <time>2022-07-11T17:44:51.628Z</time>
      </trkpt>
      <trkpt lat="44.8135" lon="0.41153">
        <ele>56.16258</ele>
        <time>2022-07-11T17:45:38.748Z</time>
      </trkpt>
      <trkpt lat="44.81255" lon="0.40609">
        <ele>55.011053</ele>
        <time>2022-07-11T17:46:46.718Z</time>
      </trkpt>
      <trkpt lat="44.8125" lon="0.4055">
        <ele>54.717242</ele>
        <time>2022-07-11T17:46:53.429Z</time>
      </trkpt>
      <trkpt lat="44.8125" lon="0.40484">
        <ele>54.340757</ele>
        <time>2022-07-11T17:47:00.781Z</time>
      </trkpt>
      <trkpt lat="44.81252" lon="0.40425">
        <ele>53.629069</ele>
        <time>2022-07-11T17:47:07.180Z</time>
      </trkpt>
      <trkpt lat="44.81254" lon="0.40359">
        <ele>52.829711</ele>
        <time>2022-07-11T17:47:14.223Z</time>
      </trkpt>
      <trkpt lat="44.81257" lon="0.40196">
        <ele>50.918665</ele>
        <time>2022-07-11T17:47:31.344Z</time>
      </trkpt>
      <trkpt lat="44.81258" lon="0.4016">
        <ele>50.530151</ele>
        <time>2022-07-11T17:47:35.138Z</time>
      </trkpt>
      <trkpt lat="44.8126" lon="0.40099">
        <ele>49.883313</ele>
        <time>2022-07-11T17:47:41.494Z</time>
      </trkpt>
      <trkpt lat="44.81262" lon="0.40008">
        <ele>48.902505</ele>
        <time>2022-07-11T17:47:51.477Z</time>
      </trkpt>
      <trkpt lat="44.81263" lon="0.39972">
        <ele>48.567729</ele>
        <time>2022-07-11T17:47:55.616Z</time>
      </trkpt>
      <trkpt lat="44.81264" lon="0.39922">
        <ele>48.26834</ele>
        <time>2022-07-11T17:48:01.308Z</time>
      </trkpt>
      <trkpt lat="44.81261" lon="0.39844">
        <ele>47.79505</ele>
        <time>2022-07-11T17:48:10.378Z</time>
      </trkpt>
      <trkpt lat="44.81245" lon="0.39779">
        <ele>47.383061</ele>
        <time>2022-07-11T17:48:18.300Z</time>
      </trkpt>
      <trkpt lat="44.81088" lon="0.39364">
        <ele>44.570731</ele>
        <time>2022-07-11T17:49:12.254Z</time>
      </trkpt>
      <trkpt lat="44.81005" lon="0.39145">
        <ele>43.096565</ele>
        <time>2022-07-11T17:49:40.378Z</time>
      </trkpt>
      <trkpt lat="44.80995" lon="0.39117">
        <ele>42.909292</ele>
        <time>2022-07-11T17:49:44.058Z</time>
      </trkpt>
      <trkpt lat="44.80981" lon="0.39033">
        <ele>42.562345</ele>
        <time>2022-07-11T17:49:54.066Z</time>
      </trkpt>
      <trkpt lat="44.80971" lon="0.3894">
        <ele>42.482466</ele>
        <time>2022-07-11T17:50:05.275Z</time>
      </trkpt>
      <trkpt lat="44.80963" lon="0.38295">
        <ele>42.35483</ele>
        <time>2022-07-11T17:51:27.104Z</time>
      </trkpt>
      <trkpt lat="44.81012" lon="0.37972">
        <ele>43.574319</ele>
        <time>2022-07-11T17:52:14.868Z</time>
      </trkpt>
      <trkpt lat="44.8102" lon="0.37912">
        <ele>43.764934</ele>
        <time>2022-07-11T17:52:23.343Z</time>
      </trkpt>
      <trkpt lat="44.81028" lon="0.37855">
        <ele>43.948545</ele>
        <time>2022-07-11T17:52:31.232Z</time>
      </trkpt>
      <trkpt lat="44.81036" lon="0.37802">
        <ele>44.130192</ele>
        <time>2022-07-11T17:52:38.307Z</time>
      </trkpt>
      <trkpt lat="44.81051" lon="0.37708">
        <ele>44.608311</ele>
        <time>2022-07-11T17:52:51.609Z</time>
      </trkpt>
      <trkpt lat="44.81055" lon="0.37604">
        <ele>45.121321</ele>
        <time>2022-07-11T17:53:06.439Z</time>
      </trkpt>
      <trkpt lat="44.81057" lon="0.37275">
        <ele>47.825546</ele>
        <time>2022-07-11T17:54:01.517Z</time>
      </trkpt>
      <trkpt lat="44.81023" lon="0.36945">
        <ele>47.765486</ele>
        <time>2022-07-11T17:54:45.830Z</time>
      </trkpt>
      <trkpt lat="44.81013" lon="0.36834">
        <ele>46.980094</ele>
        <time>2022-07-11T17:54:57.846Z</time>
      </trkpt>
      <trkpt lat="44.81013" lon="0.36739">
        <ele>45.375285</ele>
        <time>2022-07-11T17:55:07.478Z</time>
      </trkpt>
      <trkpt lat="44.81021" lon="0.36648">
        <ele>43.368852</ele>
        <time>2022-07-11T17:55:16.323Z</time>
      </trkpt>
      <trkpt lat="44.81075" lon="0.36377">
        <ele>37.221041</ele>
        <time>2022-07-11T17:55:43.171Z</time>
      </trkpt>
      <trkpt lat="44.81101" lon="0.36251">
        <ele>35.072647</ele>
        <time>2022-07-11T17:55:56.788Z</time>
      </trkpt>
      <trkpt lat="44.81123" lon="0.36185">
        <ele>34.352165</ele>
        <time>2022-07-11T17:56:04.641Z</time>
      </trkpt>
      <trkpt lat="44.81131" lon="0.36163">
        <ele>34.106972</ele>
        <time>2022-07-11T17:56:07.418Z</time>
      </trkpt>
      <trkpt lat="44.81204" lon="0.35976">
        <ele>32.837964</ele>
        <time>2022-07-11T17:56:31.954Z</time>
      </trkpt>
      <trkpt lat="44.81234" lon="0.35837">
        <ele>32.500159</ele>
        <time>2022-07-11T17:56:49.794Z</time>
      </trkpt>
      <trkpt lat="44.81238" lon="0.35751">
        <ele>32.966152</ele>
        <time>2022-07-11T17:57:02.025Z</time>
      </trkpt>
      <trkpt lat="44.81213" lon="0.35597">
        <ele>33.817312</ele>
        <time>2022-07-11T17:57:26.977Z</time>
      </trkpt>
      <trkpt lat="44.81211" lon="0.35581">
        <ele>33.901058</ele>
        <time>2022-07-11T17:57:29.590Z</time>
      </trkpt>
      <trkpt lat="44.81198" lon="0.35453">
        <ele>34.550489</ele>
        <time>2022-07-11T17:57:48.672Z</time>
      </trkpt>
      <trkpt lat="44.81194" lon="0.35405">
        <ele>34.796341</ele>
        <time>2022-07-11T17:57:55.391Z</time>
      </trkpt>
      <trkpt lat="44.81194" lon="0.35331">
        <ele>35.156339</ele>
        <time>2022-07-11T17:58:06.100Z</time>
      </trkpt>
      <trkpt lat="44.81199" lon="0.35205">
        <ele>35.658479</ele>
        <time>2022-07-11T17:58:23.024Z</time>
      </trkpt>
      <trkpt lat="44.81202" lon="0.35131">
        <ele>35.956294</ele>
        <time>2022-07-11T17:58:33.488Z</time>
      </trkpt>
      <trkpt lat="44.8121" lon="0.34843">
        <ele>38.244911</ele>
        <time>2022-07-11T17:59:19.263Z</time>
      </trkpt>
      <trkpt lat="44.81214" lon="0.34653">
        <ele>40.664235</ele>
        <time>2022-07-11T17:59:53.143Z</time>
      </trkpt>
      <trkpt lat="44.81213" lon="0.34386">
        <ele>44.405548</ele>
        <time>2022-07-11T18:00:42.464Z</time>
      </trkpt>
      <trkpt lat="44.81211" lon="0.34103">
        <ele>48.020088</ele>
        <time>2022-07-11T18:01:33.212Z</time>
      </trkpt>
      <trkpt lat="44.81202" lon="0.33997">
        <ele>48.683648</ele>
        <time>2022-07-11T18:01:50.484Z</time>
      </trkpt>
      <trkpt lat="44.81166" lon="0.33792">
        <ele>49.295494</ele>
        <time>2022-07-11T18:02:18.945Z</time>
      </trkpt>
      <trkpt lat="44.81145" lon="0.33731">
        <ele>49.059306</ele>
        <time>2022-07-11T18:02:26.944Z</time>
      </trkpt>
      <trkpt lat="44.81124" lon="0.33686">
        <ele>48.87488</ele>
        <time>2022-07-11T18:02:33.073Z</time>
      </trkpt>
      <trkpt lat="44.80997" lon="0.33527">
        <ele>48.092656</ele>
        <time>2022-07-11T18:03:00.662Z</time>
      </trkpt>
      <trkpt lat="44.80982" lon="0.33493">
        <ele>47.968332</ele>
        <time>2022-07-11T18:03:05.482Z</time>
      </trkpt>
      <trkpt lat="44.80976" lon="0.33459">
        <ele>47.857189</ele>
        <time>2022-07-11T18:03:09.937Z</time>
      </trkpt>
      <trkpt lat="44.80974" lon="0.33439">
        <ele>47.794656</ele>
        <time>2022-07-11T18:03:12.445Z</time>
      </trkpt>
      <trkpt lat="44.80974" lon="0.3339">
        <ele>48.121356</ele>
        <time>2022-07-11T18:03:18.963Z</time>
      </trkpt>
      <trkpt lat="44.80982" lon="0.3334">
        <ele>48.61319</ele>
        <time>2022-07-11T18:03:26.899Z</time>
      </trkpt>
      <trkpt lat="44.81027" lon="0.33196">
        <ele>50.14712</ele>
        <time>2022-07-11T18:03:54.652Z</time>
      </trkpt>
      <trkpt lat="44.81039" lon="0.33155">
        <ele>50.729276</ele>
        <time>2022-07-11T18:04:03.035Z</time>
      </trkpt>
      <trkpt lat="44.81047" lon="0.33095">
        <ele>51.586746</ele>
        <time>2022-07-11T18:04:14.631Z</time>
      </trkpt>
      <trkpt lat="44.81045" lon="0.32981">
        <ele>53.198292</ele>
        <time>2022-07-11T18:04:36.211Z</time>
      </trkpt>
      <trkpt lat="44.81035" lon="0.32855">
        <ele>54.091364</ele>
        <time>2022-07-11T18:04:57.126Z</time>
      </trkpt>
      <trkpt lat="44.81041" lon="0.32787">
        <ele>54.333369</ele>
        <time>2022-07-11T18:05:07.057Z</time>
      </trkpt>
      <trkpt lat="44.81118" lon="0.32439">
        <ele>53.758002</ele>
        <time>2022-07-11T18:05:50.579Z</time>
      </trkpt>
      <trkpt lat="44.81163" lon="0.32236">
        <ele>52.395225</ele>
        <time>2022-07-11T18:06:14.696Z</time>
      </trkpt>
      <trkpt lat="44.81177" lon="0.32165">
        <ele>51.833774</ele>
        <time>2022-07-11T18:06:23.004Z</time>
      </trkpt>
      <trkpt lat="44.81188" lon="0.32117">
        <ele>51.40913</ele>
        <time>2022-07-11T18:06:28.692Z</time>
      </trkpt>
      <trkpt lat="44.81287" lon="0.31663">
        <ele>47.037278</ele>
        <time>2022-07-11T18:07:20.637Z</time>
      </trkpt>
      <trkpt lat="44.81314" lon="0.31511">
        <ele>45.642232</ele>
        <time>2022-07-11T18:07:37.495Z</time>
      </trkpt>
      <trkpt lat="44.81402" lon="0.31085">
        <ele>45.263166</ele>
        <time>2022-07-11T18:08:30.725Z</time>
      </trkpt>
      <trkpt lat="44.8131" lon="0.31058">
        <ele>46.777055</ele>
        <time>2022-07-11T18:09:01.958Z</time>
      </trkpt>
      <trkpt lat="44.81279" lon="0.30987">
        <ele>49.298607</ele>
        <time>2022-07-11T18:09:22.253Z</time>
      </trkpt>
      <trkpt lat="44.81271" lon="0.30983">
        <ele>49.643004</ele>
        <time>2022-07-11T18:09:25.214Z</time>
      </trkpt>
      <trkpt lat="44.81252" lon="0.30937">
        <ele>51.239672</ele>
        <time>2022-07-11T18:09:40.274Z</time>
      </trkpt>
      <trkpt lat="44.81306" lon="0.30889">
        <ele>54.584679</ele>
        <time>2022-07-11T18:10:08.252Z</time>
      </trkpt>
      <trkpt lat="44.81323" lon="0.30868">
        <ele>56.736165</ele>
        <time>2022-07-11T18:10:19.764Z</time>
      </trkpt>
      <trkpt lat="44.81299" lon="0.30857">
        <ele>59.113133</ele>
        <time>2022-07-11T18:10:33.076Z</time>
      </trkpt>
      <trkpt lat="44.81179" lon="0.30666">
        <ele>75.852491</ele>
        <time>2022-07-11T18:12:22.537Z</time>
      </trkpt>
      <trkpt lat="44.81168" lon="0.30656">
        <ele>77.029212</ele>
        <time>2022-07-11T18:12:31.018Z</time>
      </trkpt>
      <trkpt lat="44.81137" lon="0.30648">
        <ele>79.929039</ele>
        <time>2022-07-11T18:12:49.792Z</time>
      </trkpt>
      <trkpt lat="44.81127" lon="0.30629">
        <ele>81.402456</ele>
        <time>2022-07-11T18:12:58.647Z</time>
      </trkpt>
      <trkpt lat="44.81123" lon="0.30608">
        <ele>82.840387</ele>
        <time>2022-07-11T18:13:06.653Z</time>
      </trkpt>
      <trkpt lat="44.81134" lon="0.30517">
        <ele>87.960841</ele>
        <time>2022-07-11T18:13:35.557Z</time>
      </trkpt>
      <trkpt lat="44.8114" lon="0.30492">
        <ele>89.04453</ele>
        <time>2022-07-11T18:13:44.022Z</time>
      </trkpt>
      <trkpt lat="44.81233" lon="0.3039">
        <ele>95.915748</ele>
        <time>2022-07-11T18:14:31.256Z</time>
      </trkpt>
      <trkpt lat="44.81238" lon="0.30367">
        <ele>96.879201</ele>
        <time>2022-07-11T18:14:38.158Z</time>
      </trkpt>
      <trkpt lat="44.81232" lon="0.30348">
        <ele>97.828214</ele>
        <time>2022-07-11T18:14:44.611Z</time>
      </trkpt>
      <trkpt lat="44.81222" lon="0.30334">
        <ele>98.718042</ele>
        <time>2022-07-11T18:14:49.949Z</time>
      </trkpt>
      <trkpt lat="44.81168" lon="0.30319">
        <ele>102.131323</ele>
        <time>2022-07-11T18:15:13.179Z</time>
      </trkpt>
      <trkpt lat="44.81153" lon="0.30312">
        <ele>103.096571</ele>
        <time>2022-07-11T18:15:19.865Z</time>
      </trkpt>
      <trkpt lat="44.81142" lon="0.30296">
        <ele>104.094079</ele>
        <time>2022-07-11T18:15:27.404Z</time>
      </trkpt>
      <trkpt lat="44.81107" lon="0.30212">
        <ele>108.358673</ele>
        <time>2022-07-11T18:16:00.027Z</time>
      </trkpt>
      <trkpt lat="44.81057" lon="0.30126">
        <ele>112.401923</ele>
        <time>2022-07-11T18:16:32.813Z</time>
      </trkpt>
      <trkpt lat="44.81039" lon="0.3008">
        <ele>114.309922</ele>
        <time>2022-07-11T18:16:47.400Z</time>
      </trkpt>
      <trkpt lat="44.8101" lon="0.30022">
        <ele>116.894365</ele>
        <time>2022-07-11T18:17:05.161Z</time>
      </trkpt>
      <trkpt lat="44.80957" lon="0.29952">
        <ele>118.912323</ele>
        <time>2022-07-11T18:17:27.907Z</time>
      </trkpt>
      <trkpt lat="44.80909" lon="0.29871">
        <ele>120.752714</ele>
        <time>2022-07-11T18:17:47.440Z</time>
      </trkpt>
      <trkpt lat="44.80886" lon="0.29817">
        <ele>121.848881</ele>
        <time>2022-07-11T18:17:58.967Z</time>
      </trkpt>
      <trkpt lat="44.80885" lon="0.29723">
        <ele>123.165392</ele>
        <time>2022-07-11T18:18:16.616Z</time>
      </trkpt>
      <trkpt lat="44.80871" lon="0.29716">
        <ele>123.443566</ele>
        <time>2022-07-11T18:18:20.677Z</time>
      </trkpt>
      <trkpt lat="44.8084" lon="0.29666">
        <ele>124.379883</ele>
        <time>2022-07-11T18:18:33.842Z</time>
      </trkpt>
      <trkpt lat="44.80805" lon="0.29593">
        <ele>125.264605</ele>
        <time>2022-07-11T18:18:51.160Z</time>
      </trkpt>
      <trkpt lat="44.80717" lon="0.29472">
        <ele>124.675216</ele>
        <time>2022-07-11T18:19:14.198Z</time>
      </trkpt>
      <trkpt lat="44.80652" lon="0.29401">
        <ele>122.639477</ele>
        <time>2022-07-11T18:19:26.091Z</time>
      </trkpt>
      <trkpt lat="44.80643" lon="0.2938">
        <ele>121.849837</ele>
        <time>2022-07-11T18:19:28.420Z</time>
      </trkpt>
      <trkpt lat="44.80637" lon="0.29317">
        <ele>119.760793</ele>
        <time>2022-07-11T18:19:34.351Z</time>
      </trkpt>
      <trkpt lat="44.8059" lon="0.29162">
        <ele>114.711379</ele>
        <time>2022-07-11T18:19:50.013Z</time>
      </trkpt>
      <trkpt lat="44.80586" lon="0.29073">
        <ele>112.484965</ele>
        <time>2022-07-11T18:19:58.834Z</time>
      </trkpt>
      <trkpt lat="44.80556" lon="0.29027">
        <ele>110.925451</ele>
        <time>2022-07-11T18:20:05.375Z</time>
      </trkpt>
      <trkpt lat="44.8044" lon="0.2888">
        <ele>107.400163</ele>
        <time>2022-07-11T18:20:30.162Z</time>
      </trkpt>
      <trkpt lat="44.80456" lon="0.28834">
        <ele>106.685549</ele>
        <time>2022-07-11T18:20:35.658Z</time>
      </trkpt>
      <trkpt lat="44.80455" lon="0.28807">
        <ele>106.320488</ele>
        <time>2022-07-11T18:20:38.418Z</time>
      </trkpt>
      <trkpt lat="44.80447" lon="0.28782">
        <ele>105.885263</ele>
        <time>2022-07-11T18:20:41.333Z</time>
      </trkpt>
      <trkpt lat="44.80432" lon="0.28756">
        <ele>105.362231</ele>
        <time>2022-07-11T18:20:44.804Z</time>
      </trkpt>
      <trkpt lat="44.80417" lon="0.28714">
        <ele>104.635019</ele>
        <time>2022-07-11T18:20:49.710Z</time>
      </trkpt>
      <trkpt lat="44.80404" lon="0.28667">
        <ele>103.859275</ele>
        <time>2022-07-11T18:20:55.026Z</time>
      </trkpt>
      <trkpt lat="44.80394" lon="0.28627">
        <ele>103.200623</ele>
        <time>2022-07-11T18:20:59.678Z</time>
      </trkpt>
      <trkpt lat="44.80385" lon="0.28581">
        <ele>102.465376</ele>
        <time>2022-07-11T18:21:04.991Z</time>
      </trkpt>
      <trkpt lat="44.80377" lon="0.28566">
        <ele>102.385807</ele>
        <time>2022-07-11T18:21:07.087Z</time>
      </trkpt>
      <trkpt lat="44.8035" lon="0.28574">
        <ele>102.319071</ele>
        <time>2022-07-11T18:21:11.837Z</time>
      </trkpt>
      <trkpt lat="44.80344" lon="0.28576">
        <ele>102.30348</ele>
        <time>2022-07-11T18:21:12.928Z</time>
      </trkpt>
      <trkpt lat="44.803" lon="0.28589">
        <ele>102.196816</ele>
        <time>2022-07-11T18:21:20.951Z</time>
      </trkpt>
      <trkpt lat="44.8022" lon="0.28609">
        <ele>102.003872</ele>
        <time>2022-07-11T18:21:37.382Z</time>
      </trkpt>
      <trkpt lat="44.80163" lon="0.28612">
        <ele>101.379672</ele>
        <time>2022-07-11T18:21:49.096Z</time>
      </trkpt>
      <trkpt lat="44.80145" lon="0.28606">
        <ele>101.143265</ele>
        <time>2022-07-11T18:21:52.474Z</time>
      </trkpt>
      <trkpt lat="44.80034" lon="0.28536">
        <ele>99.344649</ele>
        <time>2022-07-11T18:22:11.383Z</time>
      </trkpt>
      <trkpt lat="44.79991" lon="0.28522">
        <ele>97.316199</ele>
        <time>2022-07-11T18:22:17.531Z</time>
      </trkpt>
      <trkpt lat="44.79931" lon="0.28502">
        <ele>94.558538</ele>
        <time>2022-07-11T18:22:25.780Z</time>
      </trkpt>
      <trkpt lat="44.79885" lon="0.28486">
        <ele>92.36777</ele>
        <time>2022-07-11T18:22:32.075Z</time>
      </trkpt>
      <trkpt lat="44.79858" lon="0.28459">
        <ele>90.656247</ele>
        <time>2022-07-11T18:22:36.309Z</time>
      </trkpt>
      <trkpt lat="44.79822" lon="0.28371">
        <ele>86.276435</ele>
        <time>2022-07-11T18:22:45.536Z</time>
      </trkpt>
      <trkpt lat="44.79675" lon="0.2817">
        <ele>74.878642</ele>
        <time>2022-07-11T18:23:12.041Z</time>
      </trkpt>
      <trkpt lat="44.79586" lon="0.28087">
        <ele>70.132139</ele>
        <time>2022-07-11T18:23:26.654Z</time>
      </trkpt>
      <trkpt lat="44.79572" lon="0.28061">
        <ele>69.368525</ele>
        <time>2022-07-11T18:23:30.155Z</time>
      </trkpt>
      <trkpt lat="44.79561" lon="0.28014">
        <ele>68.248092</ele>
        <time>2022-07-11T18:23:35.253Z</time>
      </trkpt>
      <trkpt lat="44.79553" lon="0.28006">
        <ele>67.936016</ele>
        <time>2022-07-11T18:23:36.623Z</time>
      </trkpt>
      <trkpt lat="44.7955" lon="0.27981">
        <ele>67.368499</ele>
        <time>2022-07-11T18:23:39.078Z</time>
      </trkpt>
      <trkpt lat="44.79531" lon="0.27938">
        <ele>66.179908</ele>
        <time>2022-07-11T18:23:44.183Z</time>
      </trkpt>
      <trkpt lat="44.79522" lon="0.2788">
        <ele>64.978496</ele>
        <time>2022-07-11T18:23:49.984Z</time>
      </trkpt>
      <trkpt lat="44.79527" lon="0.27856">
        <ele>64.523906</ele>
        <time>2022-07-11T18:23:52.376Z</time>
      </trkpt>
      <trkpt lat="44.79555" lon="0.27775">
        <ele>62.878718</ele>
        <time>2022-07-11T18:24:01.160Z</time>
      </trkpt>
      <trkpt lat="44.79569" lon="0.27648">
        <ele>60.73051</ele>
        <time>2022-07-11T18:24:14.532Z</time>
      </trkpt>
      <trkpt lat="44.79589" lon="0.27617">
        <ele>60.313802</ele>
        <time>2022-07-11T18:24:19.160Z</time>
      </trkpt>
      <trkpt lat="44.79677" lon="0.27574">
        <ele>59.02009</ele>
        <time>2022-07-11T18:24:34.251Z</time>
      </trkpt>
      <trkpt lat="44.79748" lon="0.2756">
        <ele>57.42167</ele>
        <time>2022-07-11T18:24:44.908Z</time>
      </trkpt>
      <trkpt lat="44.79787" lon="0.2756">
        <ele>56.120398</ele>
        <time>2022-07-11T18:24:50.577Z</time>
      </trkpt>
      <trkpt lat="44.79784" lon="0.27543">
        <ele>55.718734</ele>
        <time>2022-07-11T18:24:52.046Z</time>
      </trkpt>
      <trkpt lat="44.79772" lon="0.27536">
        <ele>55.273651</ele>
        <time>2022-07-11T18:24:54.388Z</time>
      </trkpt>
      <trkpt lat="44.79697" lon="0.27521">
        <ele>52.751315</ele>
        <time>2022-07-11T18:25:04.826Z</time>
      </trkpt>
      <trkpt lat="44.79682" lon="0.27508">
        <ele>52.238287</ele>
        <time>2022-07-11T18:25:06.970Z</time>
      </trkpt>
      <trkpt lat="44.79673" lon="0.27491">
        <ele>51.830365</ele>
        <time>2022-07-11T18:25:09.288Z</time>
      </trkpt>
      <trkpt lat="44.79662" lon="0.27422">
        <ele>50.48033</ele>
        <time>2022-07-11T18:25:16.125Z</time>
      </trkpt>
      <trkpt lat="44.79645" lon="0.27369">
        <ele>49.368265</ele>
        <time>2022-07-11T18:25:22.321Z</time>
      </trkpt>
      <trkpt lat="44.79533" lon="0.27217">
        <ele>48.058175</ele>
        <time>2022-07-11T18:25:48.350Z</time>
      </trkpt>
      <trkpt lat="44.79497" lon="0.27185">
        <ele>48.251487</ele>
        <time>2022-07-11T18:25:58.037Z</time>
      </trkpt>
      <trkpt lat="44.79484" lon="0.27155">
        <ele>48.366122</ele>
        <time>2022-07-11T18:26:04.434Z</time>
      </trkpt>
      <trkpt lat="44.79481" lon="0.2711">
        <ele>48.958247</ele>
        <time>2022-07-11T18:26:13.519Z</time>
      </trkpt>
      <trkpt lat="44.79474" lon="0.27084">
        <ele>49.798828</ele>
        <time>2022-07-11T18:26:19.405Z</time>
      </trkpt>
      <trkpt lat="44.79447" lon="0.2705">
        <ele>51.42629</ele>
        <time>2022-07-11T18:26:31.649Z</time>
      </trkpt>
      <trkpt lat="44.79431" lon="0.27041">
        <ele>52.198238</ele>
        <time>2022-07-11T18:26:37.807Z</time>
      </trkpt>
      <trkpt lat="44.79326" lon="0.27027">
        <ele>56.890848</ele>
        <time>2022-07-11T18:27:20.541Z</time>
      </trkpt>
      <trkpt lat="44.79234" lon="0.26994">
        <ele>61.444473</ele>
        <time>2022-07-11T18:28:00.797Z</time>
      </trkpt>
      <trkpt lat="44.79143" lon="0.26972">
        <ele>65.269702</ele>
        <time>2022-07-11T18:28:31.808Z</time>
      </trkpt>
      <trkpt lat="44.79128" lon="0.26968">
        <ele>65.504519</ele>
        <time>2022-07-11T18:28:36.274Z</time>
      </trkpt>
      <trkpt lat="44.79003" lon="0.26925">
        <ele>67.453341</ele>
        <time>2022-07-11T18:29:05.068Z</time>
      </trkpt>
      <trkpt lat="44.78913" lon="0.26963">
        <ele>68.236015</ele>
        <time>2022-07-11T18:29:24.522Z</time>
      </trkpt>
      <trkpt lat="44.78862" lon="0.26955">
        <ele>68.578299</ele>
        <time>2022-07-11T18:29:35.996Z</time>
      </trkpt>
      <trkpt lat="44.78778" lon="0.26924">
        <ele>68.920496</ele>
        <time>2022-07-11T18:29:54.416Z</time>
      </trkpt>
      <trkpt lat="44.78691" lon="0.2691">
        <ele>68.899568</ele>
        <time>2022-07-11T18:30:10.317Z</time>
      </trkpt>
      <trkpt lat="44.78655" lon="0.2689">
        <ele>68.890231</ele>
        <time>2022-07-11T18:30:17.449Z</time>
      </trkpt>
      <trkpt lat="44.78632" lon="0.26907">
        <ele>68.859632</ele>
        <time>2022-07-11T18:30:21.623Z</time>
      </trkpt>
      <trkpt lat="44.78584" lon="0.2691">
        <ele>68.657523</ele>
        <time>2022-07-11T18:30:29.848Z</time>
      </trkpt>
      <trkpt lat="44.78566" lon="0.26905">
        <ele>68.579161</ele>
        <time>2022-07-11T18:30:32.711Z</time>
      </trkpt>
      <trkpt lat="44.78565" lon="0.26904">
        <ele>68.574345</ele>
        <time>2022-07-11T18:30:32.913Z</time>
      </trkpt>
      <trkpt lat="44.78545" lon="0.2689">
        <ele>68.480554</ele>
        <time>2022-07-11T18:30:36.761Z</time>
      </trkpt>
      <trkpt lat="44.78539" lon="0.26884">
        <ele>68.450243</ele>
        <time>2022-07-11T18:30:37.890Z</time>
      </trkpt>
      <trkpt lat="44.78521" lon="0.26871">
        <ele>68.366043</ele>
        <time>2022-07-11T18:30:41.347Z</time>
      </trkpt>
      <trkpt lat="44.78491" lon="0.26857">
        <ele>68.232557</ele>
        <time>2022-07-11T18:30:46.505Z</time>
      </trkpt>
      <trkpt lat="44.7846" lon="0.26862">
        <ele>68.127194</ele>
        <time>2022-07-11T18:30:52.220Z</time>
      </trkpt>
      <trkpt lat="44.784" lon="0.26889">
        <ele>68.082871</ele>
        <time>2022-07-11T18:31:04.111Z</time>
      </trkpt>
      <trkpt lat="44.78381" lon="0.26893">
        <ele>68.069312</ele>
        <time>2022-07-11T18:31:07.516Z</time>
      </trkpt>
      <trkpt lat="44.78356" lon="0.2689">
        <ele>68.051404</ele>
        <time>2022-07-11T18:31:11.755Z</time>
      </trkpt>
      <trkpt lat="44.7832" lon="0.26869">
        <ele>68.023856</ele>
        <time>2022-07-11T18:31:18.367Z</time>
      </trkpt>
      <trkpt lat="44.78294" lon="0.26861">
        <ele>68.004841</ele>
        <time>2022-07-11T18:31:22.974Z</time>
      </trkpt>
      <trkpt lat="44.78159" lon="0.26851">
        <ele>69.319621</ele>
        <time>2022-07-11T18:31:48.307Z</time>
      </trkpt>
      <trkpt lat="44.78141" lon="0.2685">
        <ele>69.490094</ele>
        <time>2022-07-11T18:31:52.514Z</time>
      </trkpt>
      <trkpt lat="44.78136" lon="0.26849">
        <ele>69.543704</ele>
        <time>2022-07-11T18:31:53.965Z</time>
      </trkpt>
      <trkpt lat="44.78031" lon="0.26842">
        <ele>74.086956</ele>
        <time>2022-07-11T18:32:28.184Z</time>
      </trkpt>
      <trkpt lat="44.77816" lon="0.2677">
        <ele>86.754119</ele>
        <time>2022-07-11T18:34:08.495Z</time>
      </trkpt>
      <trkpt lat="44.77734" lon="0.26774">
        <ele>90.842047</ele>
        <time>2022-07-11T18:34:39.357Z</time>
      </trkpt>
      <trkpt lat="44.77662" lon="0.26757">
        <ele>92.817117</ele>
        <time>2022-07-11T18:35:01.127Z</time>
      </trkpt>
      <trkpt lat="44.77571" lon="0.26671">
        <ele>95.183257</ele>
        <time>2022-07-11T18:35:26.768Z</time>
      </trkpt>
      <trkpt lat="44.7749" lon="0.26525">
        <ele>96.099139</ele>
        <time>2022-07-11T18:35:53.416Z</time>
      </trkpt>
      <trkpt lat="44.77375" lon="0.26297">
        <ele>96.49717</ele>
        <time>2022-07-11T18:36:29.205Z</time>
      </trkpt>
      <trkpt lat="44.7734" lon="0.26254">
        <ele>96.891562</ele>
        <time>2022-07-11T18:36:38.056Z</time>
      </trkpt>
      <trkpt lat="44.77281" lon="0.26222">
        <ele>97.43519</ele>
        <time>2022-07-11T18:36:51.069Z</time>
      </trkpt>
      <trkpt lat="44.77031" lon="0.26122">
        <ele>100.711057</ele>
        <time>2022-07-11T18:37:52.634Z</time>
      </trkpt>
      <trkpt lat="44.76927" lon="0.26072">
        <ele>101.868984</ele>
        <time>2022-07-11T18:38:17.229Z</time>
      </trkpt>
      <trkpt lat="44.7688" lon="0.26033">
        <ele>102.444082</ele>
        <time>2022-07-11T18:38:28.417Z</time>
      </trkpt>
      <trkpt lat="44.76789" lon="0.25908">
        <ele>103.573468</ele>
        <time>2022-07-11T18:38:54.335Z</time>
      </trkpt>
      <trkpt lat="44.76764" lon="0.25854">
        <ele>103.976082</ele>
        <time>2022-07-11T18:39:04.226Z</time>
      </trkpt>
      <trkpt lat="44.76742" lon="0.25621">
        <ele>106.950174</ele>
        <time>2022-07-11T18:39:45.758Z</time>
      </trkpt>
      <trkpt lat="44.76715" lon="0.2549">
        <ele>109.483176</ele>
        <time>2022-07-11T18:40:12.604Z</time>
      </trkpt>
      <trkpt lat="44.76669" lon="0.25395">
        <ele>111.849099</ele>
        <time>2022-07-11T18:40:38.300Z</time>
      </trkpt>
      <trkpt lat="44.76635" lon="0.25361">
        <ele>113.050714</ele>
        <time>2022-07-11T18:40:50.930Z</time>
      </trkpt>
      <trkpt lat="44.76622" lon="0.25349">
        <ele>113.499596</ele>
        <time>2022-07-11T18:40:55.356Z</time>
      </trkpt>
      <trkpt lat="44.76578" lon="0.25308">
        <ele>115.03364</ele>
        <time>2022-07-11T18:41:10.607Z</time>
      </trkpt>
      <trkpt lat="44.76537" lon="0.25281">
        <ele>116.337068</ele>
        <time>2022-07-11T18:41:23.935Z</time>
      </trkpt>
      <trkpt lat="44.76497" lon="0.25243">
        <ele>117.730026</ele>
        <time>2022-07-11T18:41:38.385Z</time>
      </trkpt>
      <trkpt lat="44.76448" lon="0.25216">
        <ele>118.879946</ele>
        <time>2022-07-11T18:41:53.565Z</time>
      </trkpt>
      <trkpt lat="44.76457" lon="0.25202">
        <ele>119.158632</ele>
        <time>2022-07-11T18:41:56.898Z</time>
      </trkpt>
      <trkpt lat="44.76458" lon="0.25187">
        <ele>119.398015</ele>
        <time>2022-07-11T18:41:59.883Z</time>
      </trkpt>
      <trkpt lat="44.76427" lon="0.25182">
        <ele>120.053196</ele>
        <time>2022-07-11T18:42:07.606Z</time>
      </trkpt>
      <trkpt lat="44.76359" lon="0.25155">
        <ele>121.535619</ele>
        <time>2022-07-11T18:42:24.953Z</time>
      </trkpt>
      <trkpt lat="44.76342" lon="0.25149">
        <ele>121.779553</ele>
        <time>2022-07-11T18:42:29.290Z</time>
      </trkpt>
      <trkpt lat="44.76308" lon="0.25104">
        <ele>122.307144</ele>
        <time>2022-07-11T18:42:41.673Z</time>
      </trkpt>
      <trkpt lat="44.76289" lon="0.2508">
        <ele>122.590949</ele>
        <time>2022-07-11T18:42:47.521Z</time>
      </trkpt>
      <trkpt lat="44.76239" lon="0.25014">
        <ele>123.358747</ele>
        <time>2022-07-11T18:43:02.136Z</time>
      </trkpt>
      <trkpt lat="44.762" lon="0.24956">
        <ele>123.487825</ele>
        <time>2022-07-11T18:43:12.457Z</time>
      </trkpt>
    </trkseg>
  </trk>
</gpx>